<?xml version="1.0" encoding="UTF-8" standalone="no" ?>
<gpx xmlns="http://www.topografix.com/GPX/1/1" xmlns:xsi="http://www.w3.org/2001/XMLSchema-instance" xsi:schemaLocation="http://www.topografix.com/GPX/1/1 http://www.topografix.com/GPX/1/1/gpx.xsd" version="1.1" creator="VisuGPX - https://www.visugpx.com">
  <metadata>
    <name>TANUS LA CHAPELLE DES PLANQUES</name>
  </metadata>
  <wpt lat="44.11691" lon="2.30627">
    <ele>351.359375</ele>
    <name><![CDATA[Départ TANUS LA CHAPELLE DES PLANQUES]]></name>
    <type><![CDATA[user]]></type>
  </wpt>
  <trk>
    <name><![CDATA[TANUS LA CHAPELLE DES PLANQUES]]></name>
    <trkseg>
      <trkpt lat="44.1178" lon="2.30684">
        <ele>301.99</ele>
        <time>2015-09-15T12:17:58Z</time>
      </trkpt>
      <trkpt lat="44.11798" lon="2.30691">
        <ele>301.51</ele>
        <time>2015-09-15T12:18:16Z</time>
      </trkpt>
      <trkpt lat="44.11814" lon="2.30709">
        <ele>301.51</ele>
        <time>2015-09-15T12:18:33Z</time>
      </trkpt>
      <trkpt lat="44.11836" lon="2.30736">
        <ele>301.51</ele>
        <time>2015-09-15T12:18:52Z</time>
      </trkpt>
      <trkpt lat="44.11836" lon="2.3074">
        <ele>302.95</ele>
        <time>2015-09-15T12:18:54Z</time>
      </trkpt>
      <trkpt lat="44.11833" lon="2.30772">
        <ele>303.43</ele>
        <time>2015-09-15T12:19:13Z</time>
      </trkpt>
      <trkpt lat="44.11831" lon="2.30784">
        <ele>304.39</ele>
        <time>2015-09-15T12:19:21Z</time>
      </trkpt>
      <trkpt lat="44.11826" lon="2.30789">
        <ele>304.39</ele>
        <time>2015-09-15T12:19:26Z</time>
      </trkpt>
      <trkpt lat="44.11825" lon="2.30795">
        <ele>304.39</ele>
        <time>2015-09-15T12:19:32Z</time>
      </trkpt>
      <trkpt lat="44.11823" lon="2.30805">
        <ele>304.88</ele>
        <time>2015-09-15T12:19:38Z</time>
      </trkpt>
      <trkpt lat="44.11815" lon="2.30837">
        <ele>305.36</ele>
        <time>2015-09-15T12:19:56Z</time>
      </trkpt>
      <trkpt lat="44.11812" lon="2.30855">
        <ele>305.36</ele>
        <time>2015-09-15T12:20:07Z</time>
      </trkpt>
      <trkpt lat="44.11815" lon="2.30864">
        <ele>305.36</ele>
        <time>2015-09-15T12:20:12Z</time>
      </trkpt>
      <trkpt lat="44.1182" lon="2.30869">
        <ele>305.84</ele>
        <time>2015-09-15T12:20:26Z</time>
      </trkpt>
      <trkpt lat="44.11822" lon="2.30857">
        <ele>307.76</ele>
        <time>2015-09-15T12:20:40Z</time>
      </trkpt>
      <trkpt lat="44.11822" lon="2.30854">
        <ele>308.24</ele>
        <time>2015-09-15T12:20:43Z</time>
      </trkpt>
      <trkpt lat="44.11825" lon="2.30839">
        <ele>310.64</ele>
        <time>2015-09-15T12:20:58Z</time>
      </trkpt>
      <trkpt lat="44.11832" lon="2.30826">
        <ele>312.09</ele>
        <time>2015-09-15T12:21:11Z</time>
      </trkpt>
      <trkpt lat="44.11834" lon="2.30834">
        <ele>313.53</ele>
        <time>2015-09-15T12:21:25Z</time>
      </trkpt>
      <trkpt lat="44.11833" lon="2.30852">
        <ele>315.93</ele>
        <time>2015-09-15T12:21:38Z</time>
      </trkpt>
      <trkpt lat="44.11842" lon="2.30865">
        <ele>317.85</ele>
        <time>2015-09-15T12:21:51Z</time>
      </trkpt>
      <trkpt lat="44.11848" lon="2.30854">
        <ele>319.3</ele>
        <time>2015-09-15T12:22:04Z</time>
      </trkpt>
      <trkpt lat="44.11854" lon="2.30844">
        <ele>321.22</ele>
        <time>2015-09-15T12:22:17Z</time>
      </trkpt>
      <trkpt lat="44.11862" lon="2.30831">
        <ele>323.14</ele>
        <time>2015-09-15T12:22:32Z</time>
      </trkpt>
      <trkpt lat="44.11863" lon="2.3083">
        <ele>323.62</ele>
        <time>2015-09-15T12:22:33Z</time>
      </trkpt>
      <trkpt lat="44.11873" lon="2.3082">
        <ele>325.54</ele>
        <time>2015-09-15T12:22:48Z</time>
      </trkpt>
      <trkpt lat="44.11882" lon="2.30815">
        <ele>327.95</ele>
        <time>2015-09-15T12:23:00Z</time>
      </trkpt>
      <trkpt lat="44.11892" lon="2.30803">
        <ele>329.39</ele>
        <time>2015-09-15T12:23:16Z</time>
      </trkpt>
      <trkpt lat="44.11901" lon="2.308">
        <ele>331.31</ele>
        <time>2015-09-15T12:23:27Z</time>
      </trkpt>
      <trkpt lat="44.1191" lon="2.308">
        <ele>332.27</ele>
        <time>2015-09-15T12:23:38Z</time>
      </trkpt>
      <trkpt lat="44.11922" lon="2.30796">
        <ele>334.2</ele>
        <time>2015-09-15T12:23:51Z</time>
      </trkpt>
      <trkpt lat="44.11934" lon="2.30789">
        <ele>336.12</ele>
        <time>2015-09-15T12:24:04Z</time>
      </trkpt>
      <trkpt lat="44.11944" lon="2.30785">
        <ele>338.52</ele>
        <time>2015-09-15T12:24:16Z</time>
      </trkpt>
      <trkpt lat="44.11949" lon="2.3078">
        <ele>339</ele>
        <time>2015-09-15T12:24:22Z</time>
      </trkpt>
      <trkpt lat="44.11961" lon="2.3077">
        <ele>340.44</ele>
        <time>2015-09-15T12:24:36Z</time>
      </trkpt>
      <trkpt lat="44.11973" lon="2.30767">
        <ele>342.37</ele>
        <time>2015-09-15T12:24:50Z</time>
      </trkpt>
      <trkpt lat="44.11984" lon="2.30758">
        <ele>344.29</ele>
        <time>2015-09-15T12:25:05Z</time>
      </trkpt>
      <trkpt lat="44.11996" lon="2.30751">
        <ele>346.69</ele>
        <time>2015-09-15T12:25:21Z</time>
      </trkpt>
      <trkpt lat="44.1201" lon="2.30746">
        <ele>348.62</ele>
        <time>2015-09-15T12:25:37Z</time>
      </trkpt>
      <trkpt lat="44.12021" lon="2.30742">
        <ele>351.02</ele>
        <time>2015-09-15T12:25:51Z</time>
      </trkpt>
      <trkpt lat="44.12028" lon="2.30739">
        <ele>351.98</ele>
        <time>2015-09-15T12:25:59Z</time>
      </trkpt>
      <trkpt lat="44.12041" lon="2.30738">
        <ele>354.38</ele>
        <time>2015-09-15T12:26:13Z</time>
      </trkpt>
      <trkpt lat="44.12052" lon="2.30737">
        <ele>356.79</ele>
        <time>2015-09-15T12:26:27Z</time>
      </trkpt>
      <trkpt lat="44.12062" lon="2.30733">
        <ele>359.19</ele>
        <time>2015-09-15T12:26:39Z</time>
      </trkpt>
      <trkpt lat="44.1207" lon="2.30732">
        <ele>360.63</ele>
        <time>2015-09-15T12:26:51Z</time>
      </trkpt>
      <trkpt lat="44.12084" lon="2.30739">
        <ele>363.04</ele>
        <time>2015-09-15T12:27:06Z</time>
      </trkpt>
      <trkpt lat="44.12095" lon="2.3074">
        <ele>365.44</ele>
        <time>2015-09-15T12:27:19Z</time>
      </trkpt>
      <trkpt lat="44.12101" lon="2.30743">
        <ele>366.88</ele>
        <time>2015-09-15T12:27:32Z</time>
      </trkpt>
      <trkpt lat="44.12105" lon="2.30744">
        <ele>368.32</ele>
        <time>2015-09-15T12:27:38Z</time>
      </trkpt>
      <trkpt lat="44.12114" lon="2.30747">
        <ele>369.28</ele>
        <time>2015-09-15T12:27:49Z</time>
      </trkpt>
      <trkpt lat="44.12121" lon="2.30751">
        <ele>372.65</ele>
        <time>2015-09-15T12:28:01Z</time>
      </trkpt>
      <trkpt lat="44.12131" lon="2.30757">
        <ele>374.09</ele>
        <time>2015-09-15T12:28:15Z</time>
      </trkpt>
      <trkpt lat="44.12143" lon="2.30767">
        <ele>376.49</ele>
        <time>2015-09-15T12:28:30Z</time>
      </trkpt>
      <trkpt lat="44.1215" lon="2.30778">
        <ele>378.9</ele>
        <time>2015-09-15T12:28:43Z</time>
      </trkpt>
      <trkpt lat="44.12158" lon="2.30791">
        <ele>380.82</ele>
        <time>2015-09-15T12:28:57Z</time>
      </trkpt>
      <trkpt lat="44.12166" lon="2.30808">
        <ele>382.26</ele>
        <time>2015-09-15T12:29:13Z</time>
      </trkpt>
      <trkpt lat="44.12173" lon="2.30823">
        <ele>382.74</ele>
        <time>2015-09-15T12:29:26Z</time>
      </trkpt>
      <trkpt lat="44.12184" lon="2.3084">
        <ele>385.15</ele>
        <time>2015-09-15T12:29:41Z</time>
      </trkpt>
      <trkpt lat="44.12189" lon="2.30844">
        <ele>386.11</ele>
        <time>2015-09-15T12:29:47Z</time>
      </trkpt>
      <trkpt lat="44.12195" lon="2.30846">
        <ele>387.55</ele>
        <time>2015-09-15T12:29:51Z</time>
      </trkpt>
      <trkpt lat="44.12197" lon="2.30847">
        <ele>388.03</ele>
        <time>2015-09-15T12:29:53Z</time>
      </trkpt>
      <trkpt lat="44.12212" lon="2.30843">
        <ele>388.51</ele>
        <time>2015-09-15T12:30:06Z</time>
      </trkpt>
      <trkpt lat="44.12213" lon="2.30841">
        <ele>388.99</ele>
        <time>2015-09-15T12:30:08Z</time>
      </trkpt>
      <trkpt lat="44.12228" lon="2.30829">
        <ele>389.47</ele>
        <time>2015-09-15T12:30:23Z</time>
      </trkpt>
      <trkpt lat="44.12231" lon="2.30825">
        <ele>389.95</ele>
        <time>2015-09-15T12:30:27Z</time>
      </trkpt>
      <trkpt lat="44.12245" lon="2.30815">
        <ele>391.39</ele>
        <time>2015-09-15T12:30:42Z</time>
      </trkpt>
      <trkpt lat="44.12259" lon="2.30809">
        <ele>392.84</ele>
        <time>2015-09-15T12:30:57Z</time>
      </trkpt>
      <trkpt lat="44.12271" lon="2.30805">
        <ele>394.76</ele>
        <time>2015-09-15T12:31:11Z</time>
      </trkpt>
      <trkpt lat="44.12283" lon="2.30804">
        <ele>396.2</ele>
        <time>2015-09-15T12:31:24Z</time>
      </trkpt>
      <trkpt lat="44.12298" lon="2.30807">
        <ele>397.64</ele>
        <time>2015-09-15T12:31:40Z</time>
      </trkpt>
      <trkpt lat="44.12314" lon="2.30807">
        <ele>398.6</ele>
        <time>2015-09-15T12:31:56Z</time>
      </trkpt>
      <trkpt lat="44.12326" lon="2.30807">
        <ele>397.64</ele>
        <time>2015-09-15T12:32:07Z</time>
      </trkpt>
      <trkpt lat="44.12328" lon="2.30806">
        <ele>400.05</ele>
        <time>2015-09-15T12:32:11Z</time>
      </trkpt>
      <trkpt lat="44.12329" lon="2.30806">
        <ele>400.05</ele>
        <time>2015-09-15T12:32:13Z</time>
      </trkpt>
      <trkpt lat="44.12347" lon="2.30815">
        <ele>400.53</ele>
        <time>2015-09-15T12:32:29Z</time>
      </trkpt>
      <trkpt lat="44.12352" lon="2.3082">
        <ele>401.97</ele>
        <time>2015-09-15T12:32:35Z</time>
      </trkpt>
      <trkpt lat="44.12362" lon="2.30834">
        <ele>402.93</ele>
        <time>2015-09-15T12:32:51Z</time>
      </trkpt>
      <trkpt lat="44.12361" lon="2.30838">
        <ele>403.41</ele>
        <time>2015-09-15T12:33:01Z</time>
      </trkpt>
      <trkpt lat="44.12373" lon="2.30851">
        <ele>403.89</ele>
        <time>2015-09-15T12:33:14Z</time>
      </trkpt>
      <trkpt lat="44.12374" lon="2.30854">
        <ele>404.85</ele>
        <time>2015-09-15T12:33:17Z</time>
      </trkpt>
      <trkpt lat="44.12393" lon="2.30863">
        <ele>406.29</ele>
        <time>2015-09-15T12:33:34Z</time>
      </trkpt>
      <trkpt lat="44.12414" lon="2.30862">
        <ele>407.74</ele>
        <time>2015-09-15T12:33:51Z</time>
      </trkpt>
      <trkpt lat="44.12435" lon="2.30859">
        <ele>409.66</ele>
        <time>2015-09-15T12:34:11Z</time>
      </trkpt>
      <trkpt lat="44.12454" lon="2.30854">
        <ele>411.1</ele>
        <time>2015-09-15T12:34:27Z</time>
      </trkpt>
      <trkpt lat="44.12465" lon="2.30851">
        <ele>411.58</ele>
        <time>2015-09-15T12:34:39Z</time>
      </trkpt>
      <trkpt lat="44.12484" lon="2.30844">
        <ele>412.54</ele>
        <time>2015-09-15T12:34:56Z</time>
      </trkpt>
      <trkpt lat="44.12501" lon="2.30835">
        <ele>413.5</ele>
        <time>2015-09-15T12:35:12Z</time>
      </trkpt>
      <trkpt lat="44.12502" lon="2.30834">
        <ele>413.5</ele>
        <time>2015-09-15T12:35:13Z</time>
      </trkpt>
      <trkpt lat="44.1251" lon="2.3083">
        <ele>413.5</ele>
        <time>2015-09-15T12:35:22Z</time>
      </trkpt>
      <trkpt lat="44.12515" lon="2.30825">
        <ele>413.5</ele>
        <time>2015-09-15T12:35:28Z</time>
      </trkpt>
      <trkpt lat="44.12517" lon="2.30823">
        <ele>413.5</ele>
        <time>2015-09-15T12:35:30Z</time>
      </trkpt>
      <trkpt lat="44.1252" lon="2.30819">
        <ele>412.54</ele>
        <time>2015-09-15T12:35:34Z</time>
      </trkpt>
      <trkpt lat="44.12528" lon="2.30804">
        <ele>412.54</ele>
        <time>2015-09-15T12:35:48Z</time>
      </trkpt>
      <trkpt lat="44.12529" lon="2.30796">
        <ele>413.5</ele>
        <time>2015-09-15T12:35:54Z</time>
      </trkpt>
      <trkpt lat="44.1253" lon="2.30794">
        <ele>413.5</ele>
        <time>2015-09-15T12:35:56Z</time>
      </trkpt>
      <trkpt lat="44.12531" lon="2.30774">
        <ele>413.5</ele>
        <time>2015-09-15T12:36:09Z</time>
      </trkpt>
      <trkpt lat="44.12531" lon="2.30768">
        <ele>413.5</ele>
        <time>2015-09-15T12:36:13Z</time>
      </trkpt>
      <trkpt lat="44.1253" lon="2.30765">
        <ele>413.5</ele>
        <time>2015-09-15T12:36:15Z</time>
      </trkpt>
      <trkpt lat="44.12525" lon="2.30738">
        <ele>416.87</ele>
        <time>2015-09-15T12:36:32Z</time>
      </trkpt>
      <trkpt lat="44.1253" lon="2.30718">
        <ele>418.31</ele>
        <time>2015-09-15T12:36:46Z</time>
      </trkpt>
      <trkpt lat="44.12535" lon="2.30695">
        <ele>419.27</ele>
        <time>2015-09-15T12:37:01Z</time>
      </trkpt>
      <trkpt lat="44.12539" lon="2.30672">
        <ele>421.19</ele>
        <time>2015-09-15T12:37:16Z</time>
      </trkpt>
      <trkpt lat="44.12539" lon="2.30663">
        <ele>421.68</ele>
        <time>2015-09-15T12:37:23Z</time>
      </trkpt>
      <trkpt lat="44.12539" lon="2.3066">
        <ele>422.16</ele>
        <time>2015-09-15T12:37:25Z</time>
      </trkpt>
      <trkpt lat="44.12534" lon="2.3065">
        <ele>421.19</ele>
        <time>2015-09-15T12:37:33Z</time>
      </trkpt>
      <trkpt lat="44.12525" lon="2.30638">
        <ele>417.83</ele>
        <time>2015-09-15T12:37:46Z</time>
      </trkpt>
      <trkpt lat="44.12514" lon="2.30621">
        <ele>415.91</ele>
        <time>2015-09-15T12:38:02Z</time>
      </trkpt>
      <trkpt lat="44.12506" lon="2.30603">
        <ele>415.91</ele>
        <time>2015-09-15T12:38:18Z</time>
      </trkpt>
      <trkpt lat="44.12497" lon="2.30584">
        <ele>415.91</ele>
        <time>2015-09-15T12:38:34Z</time>
      </trkpt>
      <trkpt lat="44.12488" lon="2.30572">
        <ele>417.35</ele>
        <time>2015-09-15T12:38:46Z</time>
      </trkpt>
      <trkpt lat="44.12479" lon="2.30555">
        <ele>418.31</ele>
        <time>2015-09-15T12:39:00Z</time>
      </trkpt>
      <trkpt lat="44.12468" lon="2.30533">
        <ele>418.31</ele>
        <time>2015-09-15T12:39:17Z</time>
      </trkpt>
      <trkpt lat="44.12457" lon="2.30518">
        <ele>420.71</ele>
        <time>2015-09-15T12:39:30Z</time>
      </trkpt>
      <trkpt lat="44.12446" lon="2.30494">
        <ele>422.16</ele>
        <time>2015-09-15T12:39:47Z</time>
      </trkpt>
      <trkpt lat="44.12441" lon="2.30478">
        <ele>422.64</ele>
        <time>2015-09-15T12:40:02Z</time>
      </trkpt>
      <trkpt lat="44.12433" lon="2.30457">
        <ele>423.12</ele>
        <time>2015-09-15T12:40:17Z</time>
      </trkpt>
      <trkpt lat="44.12434" lon="2.30455">
        <ele>423.12</ele>
        <time>2015-09-15T12:40:18Z</time>
      </trkpt>
      <trkpt lat="44.12431" lon="2.30433">
        <ele>424.56</ele>
        <time>2015-09-15T12:40:33Z</time>
      </trkpt>
      <trkpt lat="44.12431" lon="2.3041">
        <ele>424.56</ele>
        <time>2015-09-15T12:40:48Z</time>
      </trkpt>
      <trkpt lat="44.12431" lon="2.30385">
        <ele>423.6</ele>
        <time>2015-09-15T12:41:05Z</time>
      </trkpt>
      <trkpt lat="44.12431" lon="2.30364">
        <ele>421.68</ele>
        <time>2015-09-15T12:41:19Z</time>
      </trkpt>
      <trkpt lat="44.1243" lon="2.30332">
        <ele>420.71</ele>
        <time>2015-09-15T12:41:38Z</time>
      </trkpt>
      <trkpt lat="44.1243" lon="2.3032">
        <ele>420.23</ele>
        <time>2015-09-15T12:41:45Z</time>
      </trkpt>
      <trkpt lat="44.1243" lon="2.30309">
        <ele>419.75</ele>
        <time>2015-09-15T12:41:52Z</time>
      </trkpt>
      <trkpt lat="44.12431" lon="2.30299">
        <ele>418.31</ele>
        <time>2015-09-15T12:41:59Z</time>
      </trkpt>
      <trkpt lat="44.1243" lon="2.30291">
        <ele>417.35</ele>
        <time>2015-09-15T12:42:04Z</time>
      </trkpt>
      <trkpt lat="44.12423" lon="2.30267">
        <ele>414.47</ele>
        <time>2015-09-15T12:42:22Z</time>
      </trkpt>
      <trkpt lat="44.1242" lon="2.30249">
        <ele>411.1</ele>
        <time>2015-09-15T12:42:36Z</time>
      </trkpt>
      <trkpt lat="44.12422" lon="2.30235">
        <ele>408.22</ele>
        <time>2015-09-15T12:42:49Z</time>
      </trkpt>
      <trkpt lat="44.12416" lon="2.30218">
        <ele>404.85</ele>
        <time>2015-09-15T12:43:04Z</time>
      </trkpt>
      <trkpt lat="44.12413" lon="2.302">
        <ele>401.49</ele>
        <time>2015-09-15T12:43:19Z</time>
      </trkpt>
      <trkpt lat="44.12408" lon="2.30178">
        <ele>398.6</ele>
        <time>2015-09-15T12:43:36Z</time>
      </trkpt>
      <trkpt lat="44.124" lon="2.30158">
        <ele>396.68</ele>
        <time>2015-09-15T12:43:52Z</time>
      </trkpt>
      <trkpt lat="44.12396" lon="2.30142">
        <ele>394.76</ele>
        <time>2015-09-15T12:44:03Z</time>
      </trkpt>
      <trkpt lat="44.12383" lon="2.30142">
        <ele>391.87</ele>
        <time>2015-09-15T12:44:20Z</time>
      </trkpt>
      <trkpt lat="44.12371" lon="2.30149">
        <ele>389.47</ele>
        <time>2015-09-15T12:44:34Z</time>
      </trkpt>
      <trkpt lat="44.12357" lon="2.3015">
        <ele>386.59</ele>
        <time>2015-09-15T12:44:49Z</time>
      </trkpt>
      <trkpt lat="44.12356" lon="2.30151">
        <ele>386.59</ele>
        <time>2015-09-15T12:44:50Z</time>
      </trkpt>
      <trkpt lat="44.12349" lon="2.3014">
        <ele>383.7</ele>
        <time>2015-09-15T12:45:04Z</time>
      </trkpt>
      <trkpt lat="44.12349" lon="2.30139">
        <ele>383.7</ele>
        <time>2015-09-15T12:45:05Z</time>
      </trkpt>
      <trkpt lat="44.12361" lon="2.30119">
        <ele>381.78</ele>
        <time>2015-09-15T12:45:24Z</time>
      </trkpt>
      <trkpt lat="44.12368" lon="2.301">
        <ele>379.38</ele>
        <time>2015-09-15T12:45:41Z</time>
      </trkpt>
      <trkpt lat="44.12377" lon="2.30079">
        <ele>376.97</ele>
        <time>2015-09-15T12:45:58Z</time>
      </trkpt>
      <trkpt lat="44.12384" lon="2.3006">
        <ele>374.09</ele>
        <time>2015-09-15T12:46:13Z</time>
      </trkpt>
      <trkpt lat="44.12387" lon="2.30045">
        <ele>371.69</ele>
        <time>2015-09-15T12:46:26Z</time>
      </trkpt>
      <trkpt lat="44.12395" lon="2.30022">
        <ele>368.8</ele>
        <time>2015-09-15T12:46:44Z</time>
      </trkpt>
      <trkpt lat="44.12405" lon="2.3001">
        <ele>366.4</ele>
        <time>2015-09-15T12:46:59Z</time>
      </trkpt>
      <trkpt lat="44.12417" lon="2.30016">
        <ele>364.96</ele>
        <time>2015-09-15T12:47:14Z</time>
      </trkpt>
      <trkpt lat="44.12423" lon="2.30024">
        <ele>364</ele>
        <time>2015-09-15T12:47:28Z</time>
      </trkpt>
      <trkpt lat="44.12422" lon="2.30017">
        <ele>362.07</ele>
        <time>2015-09-15T12:47:40Z</time>
      </trkpt>
      <trkpt lat="44.12423" lon="2.30008">
        <ele>360.15</ele>
        <time>2015-09-15T12:47:49Z</time>
      </trkpt>
      <trkpt lat="44.1242" lon="2.29995">
        <ele>357.75</ele>
        <time>2015-09-15T12:48:05Z</time>
      </trkpt>
      <trkpt lat="44.12419" lon="2.29975">
        <ele>355.34</ele>
        <time>2015-09-15T12:48:20Z</time>
      </trkpt>
      <trkpt lat="44.12416" lon="2.29956">
        <ele>353.9</ele>
        <time>2015-09-15T12:48:33Z</time>
      </trkpt>
      <trkpt lat="44.12415" lon="2.29953">
        <ele>353.42</ele>
        <time>2015-09-15T12:48:35Z</time>
      </trkpt>
      <trkpt lat="44.12407" lon="2.29934">
        <ele>351.5</ele>
        <time>2015-09-15T12:48:49Z</time>
      </trkpt>
      <trkpt lat="44.12398" lon="2.29919">
        <ele>349.1</ele>
        <time>2015-09-15T12:49:03Z</time>
      </trkpt>
      <trkpt lat="44.12386" lon="2.2991">
        <ele>346.69</ele>
        <time>2015-09-15T12:49:17Z</time>
      </trkpt>
      <trkpt lat="44.12372" lon="2.29912">
        <ele>347.17</ele>
        <time>2015-09-15T12:49:32Z</time>
      </trkpt>
      <trkpt lat="44.12358" lon="2.29928">
        <ele>346.21</ele>
        <time>2015-09-15T12:49:48Z</time>
      </trkpt>
      <trkpt lat="44.12347" lon="2.29946">
        <ele>344.29</ele>
        <time>2015-09-15T12:50:04Z</time>
      </trkpt>
      <trkpt lat="44.12343" lon="2.29951">
        <ele>343.81</ele>
        <time>2015-09-15T12:50:10Z</time>
      </trkpt>
      <trkpt lat="44.12334" lon="2.29965">
        <ele>341.41</ele>
        <time>2015-09-15T12:50:25Z</time>
      </trkpt>
      <trkpt lat="44.12324" lon="2.29979">
        <ele>338.52</ele>
        <time>2015-09-15T12:50:41Z</time>
      </trkpt>
      <trkpt lat="44.12313" lon="2.29995">
        <ele>337.08</ele>
        <time>2015-09-15T12:50:58Z</time>
      </trkpt>
      <trkpt lat="44.12304" lon="2.30007">
        <ele>334.2</ele>
        <time>2015-09-15T12:51:11Z</time>
      </trkpt>
      <trkpt lat="44.12294" lon="2.30022">
        <ele>334.2</ele>
        <time>2015-09-15T12:51:26Z</time>
      </trkpt>
      <trkpt lat="44.12285" lon="2.30039">
        <ele>332.75</ele>
        <time>2015-09-15T12:51:42Z</time>
      </trkpt>
      <trkpt lat="44.12276" lon="2.3005">
        <ele>330.83</ele>
        <time>2015-09-15T12:51:56Z</time>
      </trkpt>
      <trkpt lat="44.12265" lon="2.30064">
        <ele>327.95</ele>
        <time>2015-09-15T12:52:12Z</time>
      </trkpt>
      <trkpt lat="44.12256" lon="2.30085">
        <ele>326.02</ele>
        <time>2015-09-15T12:52:27Z</time>
      </trkpt>
      <trkpt lat="44.12254" lon="2.30106">
        <ele>323.62</ele>
        <time>2015-09-15T12:52:41Z</time>
      </trkpt>
      <trkpt lat="44.12254" lon="2.3011">
        <ele>323.14</ele>
        <time>2015-09-15T12:52:43Z</time>
      </trkpt>
      <trkpt lat="44.12252" lon="2.30129">
        <ele>322.66</ele>
        <time>2015-09-15T12:52:57Z</time>
      </trkpt>
      <trkpt lat="44.12252" lon="2.30151">
        <ele>320.74</ele>
        <time>2015-09-15T12:53:12Z</time>
      </trkpt>
      <trkpt lat="44.1225" lon="2.30147">
        <ele>319.3</ele>
        <time>2015-09-15T12:53:26Z</time>
      </trkpt>
      <trkpt lat="44.1225" lon="2.30139">
        <ele>319.78</ele>
        <time>2015-09-15T12:53:39Z</time>
      </trkpt>
      <trkpt lat="44.12251" lon="2.30134">
        <ele>319.78</ele>
        <time>2015-09-15T12:53:43Z</time>
      </trkpt>
      <trkpt lat="44.12252" lon="2.30125">
        <ele>320.26</ele>
        <time>2015-09-15T12:53:57Z</time>
      </trkpt>
      <trkpt lat="44.12255" lon="2.30119">
        <ele>320.26</ele>
        <time>2015-09-15T12:54:08Z</time>
      </trkpt>
      <trkpt lat="44.12265" lon="2.30095">
        <ele>320.26</ele>
        <time>2015-09-15T12:54:23Z</time>
      </trkpt>
      <trkpt lat="44.12267" lon="2.30081">
        <ele>321.7</ele>
        <time>2015-09-15T12:54:33Z</time>
      </trkpt>
      <trkpt lat="44.12268" lon="2.30058">
        <ele>322.18</ele>
        <time>2015-09-15T12:54:49Z</time>
      </trkpt>
      <trkpt lat="44.1227" lon="2.30038">
        <ele>319.3</ele>
        <time>2015-09-15T12:55:04Z</time>
      </trkpt>
      <trkpt lat="44.1227" lon="2.30019">
        <ele>316.89</ele>
        <time>2015-09-15T12:55:18Z</time>
      </trkpt>
      <trkpt lat="44.12271" lon="2.30008">
        <ele>314.49</ele>
        <time>2015-09-15T12:55:29Z</time>
      </trkpt>
      <trkpt lat="44.12267" lon="2.29995">
        <ele>311.6</ele>
        <time>2015-09-15T12:55:44Z</time>
      </trkpt>
      <trkpt lat="44.12261" lon="2.29978">
        <ele>310.64</ele>
        <time>2015-09-15T12:55:57Z</time>
      </trkpt>
      <trkpt lat="44.12261" lon="2.29969">
        <ele>310.64</ele>
        <time>2015-09-15T12:56:03Z</time>
      </trkpt>
      <trkpt lat="44.1226" lon="2.29955">
        <ele>310.64</ele>
        <time>2015-09-15T12:56:11Z</time>
      </trkpt>
      <trkpt lat="44.12259" lon="2.2995">
        <ele>310.16</ele>
        <time>2015-09-15T12:56:15Z</time>
      </trkpt>
      <trkpt lat="44.12258" lon="2.29929">
        <ele>310.16</ele>
        <time>2015-09-15T12:56:33Z</time>
      </trkpt>
      <trkpt lat="44.12259" lon="2.29922">
        <ele>310.16</ele>
        <time>2015-09-15T12:56:40Z</time>
      </trkpt>
      <trkpt lat="44.12268" lon="2.29902">
        <ele>310.16</ele>
        <time>2015-09-15T12:56:54Z</time>
      </trkpt>
      <trkpt lat="44.1227" lon="2.29893">
        <ele>310.16</ele>
        <time>2015-09-15T12:57:00Z</time>
      </trkpt>
      <trkpt lat="44.12279" lon="2.29873">
        <ele>310.16</ele>
        <time>2015-09-15T12:57:15Z</time>
      </trkpt>
      <trkpt lat="44.12284" lon="2.29857">
        <ele>310.16</ele>
        <time>2015-09-15T12:57:28Z</time>
      </trkpt>
      <trkpt lat="44.12293" lon="2.29837">
        <ele>310.16</ele>
        <time>2015-09-15T12:57:42Z</time>
      </trkpt>
      <trkpt lat="44.12302" lon="2.29821">
        <ele>310.16</ele>
        <time>2015-09-15T12:57:57Z</time>
      </trkpt>
      <trkpt lat="44.12307" lon="2.29814">
        <ele>310.16</ele>
        <time>2015-09-15T12:58:03Z</time>
      </trkpt>
      <trkpt lat="44.12319" lon="2.29799">
        <ele>310.64</ele>
        <time>2015-09-15T12:58:16Z</time>
      </trkpt>
      <trkpt lat="44.1232" lon="2.29797">
        <ele>310.64</ele>
        <time>2015-09-15T12:58:17Z</time>
      </trkpt>
      <trkpt lat="44.12322" lon="2.29793">
        <ele>310.64</ele>
        <time>2015-09-15T12:58:20Z</time>
      </trkpt>
      <trkpt lat="44.12332" lon="2.29784">
        <ele>310.64</ele>
        <time>2015-09-15T12:58:30Z</time>
      </trkpt>
      <trkpt lat="44.12341" lon="2.2977">
        <ele>310.64</ele>
        <time>2015-09-15T12:58:43Z</time>
      </trkpt>
      <trkpt lat="44.12347" lon="2.2976">
        <ele>310.64</ele>
        <time>2015-09-15T12:58:55Z</time>
      </trkpt>
      <trkpt lat="44.12349" lon="2.29744">
        <ele>311.12</ele>
        <time>2015-09-15T12:59:10Z</time>
      </trkpt>
      <trkpt lat="44.12357" lon="2.29729">
        <ele>311.12</ele>
        <time>2015-09-15T12:59:23Z</time>
      </trkpt>
      <trkpt lat="44.12359" lon="2.29719">
        <ele>311.6</ele>
        <time>2015-09-15T12:59:30Z</time>
      </trkpt>
      <trkpt lat="44.12362" lon="2.29696">
        <ele>311.6</ele>
        <time>2015-09-15T12:59:45Z</time>
      </trkpt>
      <trkpt lat="44.12363" lon="2.2968">
        <ele>312.09</ele>
        <time>2015-09-15T12:59:58Z</time>
      </trkpt>
      <trkpt lat="44.12367" lon="2.29664">
        <ele>312.57</ele>
        <time>2015-09-15T13:00:09Z</time>
      </trkpt>
      <trkpt lat="44.12368" lon="2.29651">
        <ele>312.57</ele>
        <time>2015-09-15T13:00:20Z</time>
      </trkpt>
      <trkpt lat="44.12368" lon="2.29639">
        <ele>313.05</ele>
        <time>2015-09-15T13:00:34Z</time>
      </trkpt>
      <trkpt lat="44.1237" lon="2.29627">
        <ele>313.53</ele>
        <time>2015-09-15T13:00:48Z</time>
      </trkpt>
      <trkpt lat="44.12367" lon="2.29615">
        <ele>313.53</ele>
        <time>2015-09-15T13:01:01Z</time>
      </trkpt>
      <trkpt lat="44.12364" lon="2.29608">
        <ele>313.53</ele>
        <time>2015-09-15T13:01:15Z</time>
      </trkpt>
      <trkpt lat="44.12365" lon="2.29603">
        <ele>314.97</ele>
        <time>2015-09-15T13:01:22Z</time>
      </trkpt>
      <trkpt lat="44.12369" lon="2.29593">
        <ele>316.89</ele>
        <time>2015-09-15T13:01:37Z</time>
      </trkpt>
      <trkpt lat="44.12372" lon="2.29586">
        <ele>318.81</ele>
        <time>2015-09-15T13:01:51Z</time>
      </trkpt>
      <trkpt lat="44.12374" lon="2.29576">
        <ele>318.81</ele>
        <time>2015-09-15T13:02:09Z</time>
      </trkpt>
      <trkpt lat="44.12373" lon="2.29579">
        <ele>317.37</ele>
        <time>2015-09-15T13:02:20Z</time>
      </trkpt>
      <trkpt lat="44.1237" lon="2.29587">
        <ele>317.37</ele>
        <time>2015-09-15T13:02:52Z</time>
      </trkpt>
      <trkpt lat="44.12372" lon="2.29587">
        <ele>316.89</ele>
        <time>2015-09-15T13:03:20Z</time>
      </trkpt>
      <trkpt lat="44.1238" lon="2.29573">
        <ele>318.33</ele>
        <time>2015-09-15T13:03:47Z</time>
      </trkpt>
      <trkpt lat="44.12375" lon="2.29572">
        <ele>317.85</ele>
        <time>2015-09-15T13:04:18Z</time>
      </trkpt>
      <trkpt lat="44.12373" lon="2.29579">
        <ele>319.3</ele>
        <time>2015-09-15T13:04:32Z</time>
      </trkpt>
      <trkpt lat="44.12376" lon="2.2958">
        <ele>322.18</ele>
        <time>2015-09-15T13:04:48Z</time>
      </trkpt>
      <trkpt lat="44.12382" lon="2.29577">
        <ele>323.62</ele>
        <time>2015-09-15T13:05:05Z</time>
      </trkpt>
      <trkpt lat="44.1238" lon="2.29569">
        <ele>325.54</ele>
        <time>2015-09-15T13:05:22Z</time>
      </trkpt>
      <trkpt lat="44.12379" lon="2.29558">
        <ele>328.43</ele>
        <time>2015-09-15T13:05:38Z</time>
      </trkpt>
      <trkpt lat="44.12378" lon="2.29541">
        <ele>330.35</ele>
        <time>2015-09-15T13:05:56Z</time>
      </trkpt>
      <trkpt lat="44.12375" lon="2.29529">
        <ele>333.71</ele>
        <time>2015-09-15T13:06:13Z</time>
      </trkpt>
      <trkpt lat="44.1237" lon="2.29514">
        <ele>336.6</ele>
        <time>2015-09-15T13:06:29Z</time>
      </trkpt>
      <trkpt lat="44.12364" lon="2.29508">
        <ele>339.48</ele>
        <time>2015-09-15T13:06:44Z</time>
      </trkpt>
      <trkpt lat="44.12359" lon="2.29498">
        <ele>340.92</ele>
        <time>2015-09-15T13:06:57Z</time>
      </trkpt>
      <trkpt lat="44.12355" lon="2.29493">
        <ele>342.37</ele>
        <time>2015-09-15T13:07:11Z</time>
      </trkpt>
      <trkpt lat="44.12349" lon="2.29479">
        <ele>344.77</ele>
        <time>2015-09-15T13:07:28Z</time>
      </trkpt>
      <trkpt lat="44.12344" lon="2.29467">
        <ele>347.65</ele>
        <time>2015-09-15T13:07:42Z</time>
      </trkpt>
      <trkpt lat="44.12339" lon="2.2946">
        <ele>349.58</ele>
        <time>2015-09-15T13:07:53Z</time>
      </trkpt>
      <trkpt lat="44.12339" lon="2.29439">
        <ele>351.02</ele>
        <time>2015-09-15T13:08:05Z</time>
      </trkpt>
      <trkpt lat="44.12341" lon="2.29444">
        <ele>351.98</ele>
        <time>2015-09-15T13:08:17Z</time>
      </trkpt>
      <trkpt lat="44.12346" lon="2.29453">
        <ele>352.94</ele>
        <time>2015-09-15T13:08:31Z</time>
      </trkpt>
      <trkpt lat="44.12354" lon="2.29456">
        <ele>354.86</ele>
        <time>2015-09-15T13:08:43Z</time>
      </trkpt>
      <trkpt lat="44.12363" lon="2.2946">
        <ele>356.79</ele>
        <time>2015-09-15T13:08:56Z</time>
      </trkpt>
      <trkpt lat="44.12373" lon="2.29469">
        <ele>357.75</ele>
        <time>2015-09-15T13:09:12Z</time>
      </trkpt>
      <trkpt lat="44.12385" lon="2.29464">
        <ele>360.63</ele>
        <time>2015-09-15T13:09:26Z</time>
      </trkpt>
      <trkpt lat="44.1239" lon="2.29444">
        <ele>362.55</ele>
        <time>2015-09-15T13:09:43Z</time>
      </trkpt>
      <trkpt lat="44.12388" lon="2.29429">
        <ele>364.48</ele>
        <time>2015-09-15T13:09:59Z</time>
      </trkpt>
      <trkpt lat="44.12385" lon="2.29426">
        <ele>365.92</ele>
        <time>2015-09-15T13:10:12Z</time>
      </trkpt>
      <trkpt lat="44.12379" lon="2.2943">
        <ele>365.92</ele>
        <time>2015-09-15T13:10:24Z</time>
      </trkpt>
      <trkpt lat="44.12374" lon="2.29426">
        <ele>368.8</ele>
        <time>2015-09-15T13:10:41Z</time>
      </trkpt>
      <trkpt lat="44.12368" lon="2.29412">
        <ele>370.73</ele>
        <time>2015-09-15T13:10:56Z</time>
      </trkpt>
      <trkpt lat="44.12364" lon="2.294">
        <ele>373.61</ele>
        <time>2015-09-15T13:11:10Z</time>
      </trkpt>
      <trkpt lat="44.1236" lon="2.2939">
        <ele>376.49</ele>
        <time>2015-09-15T13:11:22Z</time>
      </trkpt>
      <trkpt lat="44.12357" lon="2.29376">
        <ele>378.9</ele>
        <time>2015-09-15T13:11:36Z</time>
      </trkpt>
      <trkpt lat="44.12353" lon="2.29364">
        <ele>379.86</ele>
        <time>2015-09-15T13:11:50Z</time>
      </trkpt>
      <trkpt lat="44.12344" lon="2.29345">
        <ele>383.7</ele>
        <time>2015-09-15T13:12:07Z</time>
      </trkpt>
      <trkpt lat="44.12342" lon="2.2934">
        <ele>385.15</ele>
        <time>2015-09-15T13:12:21Z</time>
      </trkpt>
      <trkpt lat="44.12341" lon="2.29338">
        <ele>385.15</ele>
        <time>2015-09-15T13:12:36Z</time>
      </trkpt>
      <trkpt lat="44.12346" lon="2.29351">
        <ele>386.59</ele>
        <time>2015-09-15T13:12:53Z</time>
      </trkpt>
      <trkpt lat="44.12351" lon="2.29356">
        <ele>388.03</ele>
        <time>2015-09-15T13:13:08Z</time>
      </trkpt>
      <trkpt lat="44.12359" lon="2.29361">
        <ele>389.47</ele>
        <time>2015-09-15T13:13:22Z</time>
      </trkpt>
      <trkpt lat="44.12368" lon="2.29359">
        <ele>392.36</ele>
        <time>2015-09-15T13:13:37Z</time>
      </trkpt>
      <trkpt lat="44.12371" lon="2.29357">
        <ele>395.24</ele>
        <time>2015-09-15T13:13:51Z</time>
      </trkpt>
      <trkpt lat="44.12369" lon="2.2935">
        <ele>397.64</ele>
        <time>2015-09-15T13:14:05Z</time>
      </trkpt>
      <trkpt lat="44.12367" lon="2.2934">
        <ele>398.6</ele>
        <time>2015-09-15T13:14:20Z</time>
      </trkpt>
      <trkpt lat="44.12362" lon="2.29325">
        <ele>400.05</ele>
        <time>2015-09-15T13:14:34Z</time>
      </trkpt>
      <trkpt lat="44.12357" lon="2.29318">
        <ele>402.93</ele>
        <time>2015-09-15T13:14:47Z</time>
      </trkpt>
      <trkpt lat="44.12352" lon="2.29308">
        <ele>404.85</ele>
        <time>2015-09-15T13:15:00Z</time>
      </trkpt>
      <trkpt lat="44.12345" lon="2.29292">
        <ele>407.26</ele>
        <time>2015-09-15T13:15:15Z</time>
      </trkpt>
      <trkpt lat="44.12342" lon="2.29274">
        <ele>409.18</ele>
        <time>2015-09-15T13:15:28Z</time>
      </trkpt>
      <trkpt lat="44.12339" lon="2.29258">
        <ele>410.62</ele>
        <time>2015-09-15T13:15:41Z</time>
      </trkpt>
      <trkpt lat="44.12335" lon="2.29245">
        <ele>412.06</ele>
        <time>2015-09-15T13:15:54Z</time>
      </trkpt>
      <trkpt lat="44.12333" lon="2.29234">
        <ele>413.02</ele>
        <time>2015-09-15T13:16:04Z</time>
      </trkpt>
      <trkpt lat="44.12335" lon="2.29218">
        <ele>414.95</ele>
        <time>2015-09-15T13:16:20Z</time>
      </trkpt>
      <trkpt lat="44.12338" lon="2.29204">
        <ele>415.43</ele>
        <time>2015-09-15T13:16:33Z</time>
      </trkpt>
      <trkpt lat="44.12339" lon="2.29194">
        <ele>416.39</ele>
        <time>2015-09-15T13:16:45Z</time>
      </trkpt>
      <trkpt lat="44.12339" lon="2.29178">
        <ele>417.35</ele>
        <time>2015-09-15T13:16:59Z</time>
      </trkpt>
      <trkpt lat="44.12338" lon="2.29157">
        <ele>416.87</ele>
        <time>2015-09-15T13:17:17Z</time>
      </trkpt>
      <trkpt lat="44.12337" lon="2.29137">
        <ele>415.91</ele>
        <time>2015-09-15T13:17:33Z</time>
      </trkpt>
      <trkpt lat="44.12337" lon="2.29113">
        <ele>417.35</ele>
        <time>2015-09-15T13:17:48Z</time>
      </trkpt>
      <trkpt lat="44.12338" lon="2.29093">
        <ele>418.31</ele>
        <time>2015-09-15T13:18:04Z</time>
      </trkpt>
      <trkpt lat="44.12343" lon="2.29073">
        <ele>418.31</ele>
        <time>2015-09-15T13:18:21Z</time>
      </trkpt>
      <trkpt lat="44.12352" lon="2.29052">
        <ele>418.31</ele>
        <time>2015-09-15T13:18:38Z</time>
      </trkpt>
      <trkpt lat="44.12359" lon="2.29034">
        <ele>418.31</ele>
        <time>2015-09-15T13:18:54Z</time>
      </trkpt>
      <trkpt lat="44.12362" lon="2.29016">
        <ele>418.79</ele>
        <time>2015-09-15T13:19:09Z</time>
      </trkpt>
      <trkpt lat="44.12367" lon="2.29004">
        <ele>419.27</ele>
        <time>2015-09-15T13:19:38Z</time>
      </trkpt>
      <trkpt lat="44.12364" lon="2.29005">
        <ele>419.27</ele>
        <time>2015-09-15T13:19:53Z</time>
      </trkpt>
      <trkpt lat="44.12364" lon="2.29008">
        <ele>419.27</ele>
        <time>2015-09-15T13:20:16Z</time>
      </trkpt>
      <trkpt lat="44.12363" lon="2.2901">
        <ele>419.27</ele>
        <time>2015-09-15T13:20:39Z</time>
      </trkpt>
      <trkpt lat="44.12364" lon="2.29009">
        <ele>419.27</ele>
        <time>2015-09-15T13:21:01Z</time>
      </trkpt>
      <trkpt lat="44.12364" lon="2.2901">
        <ele>419.27</ele>
        <time>2015-09-15T13:21:24Z</time>
      </trkpt>
      <trkpt lat="44.12366" lon="2.29009">
        <ele>420.23</ele>
        <time>2015-09-15T13:21:50Z</time>
      </trkpt>
      <trkpt lat="44.12366" lon="2.29011">
        <ele>420.23</ele>
        <time>2015-09-15T13:22:11Z</time>
      </trkpt>
      <trkpt lat="44.12374" lon="2.29006">
        <ele>420.23</ele>
        <time>2015-09-15T13:22:26Z</time>
      </trkpt>
      <trkpt lat="44.12377" lon="2.29003">
        <ele>418.79</ele>
        <time>2015-09-15T13:22:30Z</time>
      </trkpt>
      <trkpt lat="44.12384" lon="2.28993">
        <ele>417.83</ele>
        <time>2015-09-15T13:22:43Z</time>
      </trkpt>
      <trkpt lat="44.12397" lon="2.28973">
        <ele>416.87</ele>
        <time>2015-09-15T13:23:01Z</time>
      </trkpt>
      <trkpt lat="44.12412" lon="2.28961">
        <ele>416.39</ele>
        <time>2015-09-15T13:23:19Z</time>
      </trkpt>
      <trkpt lat="44.12425" lon="2.28952">
        <ele>414.95</ele>
        <time>2015-09-15T13:23:33Z</time>
      </trkpt>
      <trkpt lat="44.12442" lon="2.28944">
        <ele>414.47</ele>
        <time>2015-09-15T13:23:51Z</time>
      </trkpt>
      <trkpt lat="44.12461" lon="2.28933">
        <ele>413.02</ele>
        <time>2015-09-15T13:24:07Z</time>
      </trkpt>
      <trkpt lat="44.12465" lon="2.28931">
        <ele>413.02</ele>
        <time>2015-09-15T13:24:11Z</time>
      </trkpt>
      <trkpt lat="44.12482" lon="2.28934">
        <ele>414.47</ele>
        <time>2015-09-15T13:24:26Z</time>
      </trkpt>
      <trkpt lat="44.125" lon="2.28927">
        <ele>416.39</ele>
        <time>2015-09-15T13:24:44Z</time>
      </trkpt>
      <trkpt lat="44.12511" lon="2.28909">
        <ele>419.27</ele>
        <time>2015-09-15T13:25:01Z</time>
      </trkpt>
      <trkpt lat="44.12523" lon="2.28894">
        <ele>419.27</ele>
        <time>2015-09-15T13:25:14Z</time>
      </trkpt>
      <trkpt lat="44.12533" lon="2.28891">
        <ele>420.71</ele>
        <time>2015-09-15T13:25:26Z</time>
      </trkpt>
      <trkpt lat="44.1254" lon="2.28881">
        <ele>421.19</ele>
        <time>2015-09-15T13:25:38Z</time>
      </trkpt>
      <trkpt lat="44.12547" lon="2.28878">
        <ele>421.68</ele>
        <time>2015-09-15T13:25:51Z</time>
      </trkpt>
      <trkpt lat="44.12563" lon="2.28876">
        <ele>422.64</ele>
        <time>2015-09-15T13:26:07Z</time>
      </trkpt>
      <trkpt lat="44.12577" lon="2.28875">
        <ele>424.56</ele>
        <time>2015-09-15T13:26:23Z</time>
      </trkpt>
      <trkpt lat="44.12592" lon="2.28875">
        <ele>425.04</ele>
        <time>2015-09-15T13:26:39Z</time>
      </trkpt>
      <trkpt lat="44.126" lon="2.28863">
        <ele>425.52</ele>
        <time>2015-09-15T13:26:54Z</time>
      </trkpt>
      <trkpt lat="44.12606" lon="2.28853">
        <ele>425.52</ele>
        <time>2015-09-15T13:27:16Z</time>
      </trkpt>
      <trkpt lat="44.12605" lon="2.28855">
        <ele>425.52</ele>
        <time>2015-09-15T13:27:45Z</time>
      </trkpt>
      <trkpt lat="44.12607" lon="2.2886">
        <ele>425.52</ele>
        <time>2015-09-15T13:28:14Z</time>
      </trkpt>
      <trkpt lat="44.12608" lon="2.28864">
        <ele>425.52</ele>
        <time>2015-09-15T13:28:31Z</time>
      </trkpt>
      <trkpt lat="44.12614" lon="2.28863">
        <ele>424.56</ele>
        <time>2015-09-15T13:28:44Z</time>
      </trkpt>
      <trkpt lat="44.12623" lon="2.28861">
        <ele>423.12</ele>
        <time>2015-09-15T13:28:57Z</time>
      </trkpt>
      <trkpt lat="44.12636" lon="2.28858">
        <ele>421.68</ele>
        <time>2015-09-15T13:29:12Z</time>
      </trkpt>
      <trkpt lat="44.12647" lon="2.28856">
        <ele>420.23</ele>
        <time>2015-09-15T13:29:27Z</time>
      </trkpt>
      <trkpt lat="44.12657" lon="2.28855">
        <ele>418.31</ele>
        <time>2015-09-15T13:29:41Z</time>
      </trkpt>
      <trkpt lat="44.12671" lon="2.28858">
        <ele>416.39</ele>
        <time>2015-09-15T13:29:58Z</time>
      </trkpt>
      <trkpt lat="44.12687" lon="2.28859">
        <ele>414.47</ele>
        <time>2015-09-15T13:30:14Z</time>
      </trkpt>
      <trkpt lat="44.12705" lon="2.28864">
        <ele>412.06</ele>
        <time>2015-09-15T13:30:32Z</time>
      </trkpt>
      <trkpt lat="44.12721" lon="2.2887">
        <ele>410.14</ele>
        <time>2015-09-15T13:30:49Z</time>
      </trkpt>
      <trkpt lat="44.12737" lon="2.28878">
        <ele>408.7</ele>
        <time>2015-09-15T13:31:04Z</time>
      </trkpt>
      <trkpt lat="44.12751" lon="2.2888">
        <ele>406.77</ele>
        <time>2015-09-15T13:31:19Z</time>
      </trkpt>
      <trkpt lat="44.1277" lon="2.28878">
        <ele>405.33</ele>
        <time>2015-09-15T13:31:36Z</time>
      </trkpt>
      <trkpt lat="44.12785" lon="2.28879">
        <ele>403.41</ele>
        <time>2015-09-15T13:31:52Z</time>
      </trkpt>
      <trkpt lat="44.12806" lon="2.28882">
        <ele>402.45</ele>
        <time>2015-09-15T13:32:07Z</time>
      </trkpt>
      <trkpt lat="44.12819" lon="2.28883">
        <ele>401.97</ele>
        <time>2015-09-15T13:32:23Z</time>
      </trkpt>
      <trkpt lat="44.12823" lon="2.28872">
        <ele>400.05</ele>
        <time>2015-09-15T13:32:35Z</time>
      </trkpt>
      <trkpt lat="44.12821" lon="2.28863">
        <ele>398.6</ele>
        <time>2015-09-15T13:32:46Z</time>
      </trkpt>
      <trkpt lat="44.12821" lon="2.28863">
        <ele>397.64</ele>
        <time>2015-09-15T13:32:50Z</time>
      </trkpt>
      <trkpt lat="44.12823" lon="2.28861">
        <ele>396.2</ele>
        <time>2015-09-15T13:33:06Z</time>
      </trkpt>
      <trkpt lat="44.12814" lon="2.28857">
        <ele>395.24</ele>
        <time>2015-09-15T13:33:19Z</time>
      </trkpt>
      <trkpt lat="44.12807" lon="2.28859">
        <ele>394.76</ele>
        <time>2015-09-15T13:33:40Z</time>
      </trkpt>
      <trkpt lat="44.12803" lon="2.28853">
        <ele>393.8</ele>
        <time>2015-09-15T13:34:07Z</time>
      </trkpt>
      <trkpt lat="44.12792" lon="2.28846">
        <ele>392.36</ele>
        <time>2015-09-15T13:34:21Z</time>
      </trkpt>
      <trkpt lat="44.12784" lon="2.2884">
        <ele>390.43</ele>
        <time>2015-09-15T13:34:35Z</time>
      </trkpt>
      <trkpt lat="44.12783" lon="2.28838">
        <ele>389.95</ele>
        <time>2015-09-15T13:34:38Z</time>
      </trkpt>
      <trkpt lat="44.12781" lon="2.28833">
        <ele>389.47</ele>
        <time>2015-09-15T13:34:43Z</time>
      </trkpt>
      <trkpt lat="44.12772" lon="2.28817">
        <ele>387.07</ele>
        <time>2015-09-15T13:35:00Z</time>
      </trkpt>
      <trkpt lat="44.12766" lon="2.28807">
        <ele>384.66</ele>
        <time>2015-09-15T13:35:13Z</time>
      </trkpt>
      <trkpt lat="44.12757" lon="2.28795">
        <ele>382.74</ele>
        <time>2015-09-15T13:35:27Z</time>
      </trkpt>
      <trkpt lat="44.12745" lon="2.28779">
        <ele>380.82</ele>
        <time>2015-09-15T13:35:44Z</time>
      </trkpt>
      <trkpt lat="44.12732" lon="2.28764">
        <ele>378.9</ele>
        <time>2015-09-15T13:36:00Z</time>
      </trkpt>
      <trkpt lat="44.1272" lon="2.28747">
        <ele>376.97</ele>
        <time>2015-09-15T13:36:15Z</time>
      </trkpt>
      <trkpt lat="44.1271" lon="2.28736">
        <ele>376.01</ele>
        <time>2015-09-15T13:36:27Z</time>
      </trkpt>
      <trkpt lat="44.12697" lon="2.2871">
        <ele>373.13</ele>
        <time>2015-09-15T13:36:45Z</time>
      </trkpt>
      <trkpt lat="44.12689" lon="2.28695">
        <ele>371.21</ele>
        <time>2015-09-15T13:37:01Z</time>
      </trkpt>
      <trkpt lat="44.12676" lon="2.28682">
        <ele>368.8</ele>
        <time>2015-09-15T13:37:16Z</time>
      </trkpt>
      <trkpt lat="44.12666" lon="2.28672">
        <ele>367.36</ele>
        <time>2015-09-15T13:37:29Z</time>
      </trkpt>
      <trkpt lat="44.1265" lon="2.2866">
        <ele>365.92</ele>
        <time>2015-09-15T13:37:43Z</time>
      </trkpt>
      <trkpt lat="44.12631" lon="2.28656">
        <ele>364.96</ele>
        <time>2015-09-15T13:37:56Z</time>
      </trkpt>
      <trkpt lat="44.12624" lon="2.28661">
        <ele>363.52</ele>
        <time>2015-09-15T13:38:08Z</time>
      </trkpt>
      <trkpt lat="44.12631" lon="2.28659">
        <ele>360.63</ele>
        <time>2015-09-15T13:38:26Z</time>
      </trkpt>
      <trkpt lat="44.1264" lon="2.28654">
        <ele>358.23</ele>
        <time>2015-09-15T13:38:42Z</time>
      </trkpt>
      <trkpt lat="44.12652" lon="2.28649">
        <ele>355.83</ele>
        <time>2015-09-15T13:38:56Z</time>
      </trkpt>
      <trkpt lat="44.12666" lon="2.28644">
        <ele>354.86</ele>
        <time>2015-09-15T13:39:12Z</time>
      </trkpt>
      <trkpt lat="44.12678" lon="2.28639">
        <ele>352.94</ele>
        <time>2015-09-15T13:39:26Z</time>
      </trkpt>
      <trkpt lat="44.1269" lon="2.28645">
        <ele>351.5</ele>
        <time>2015-09-15T13:39:41Z</time>
      </trkpt>
      <trkpt lat="44.127" lon="2.28652">
        <ele>350.06</ele>
        <time>2015-09-15T13:39:56Z</time>
      </trkpt>
      <trkpt lat="44.12704" lon="2.28665">
        <ele>348.13</ele>
        <time>2015-09-15T13:40:13Z</time>
      </trkpt>
      <trkpt lat="44.12709" lon="2.28677">
        <ele>346.21</ele>
        <time>2015-09-15T13:40:29Z</time>
      </trkpt>
      <trkpt lat="44.12721" lon="2.28672">
        <ele>346.21</ele>
        <time>2015-09-15T13:40:47Z</time>
      </trkpt>
      <trkpt lat="44.1273" lon="2.28673">
        <ele>346.21</ele>
        <time>2015-09-15T13:41:02Z</time>
      </trkpt>
      <trkpt lat="44.12731" lon="2.28668">
        <ele>346.21</ele>
        <time>2015-09-15T13:41:16Z</time>
      </trkpt>
      <trkpt lat="44.12736" lon="2.28656">
        <ele>343.81</ele>
        <time>2015-09-15T13:41:35Z</time>
      </trkpt>
      <trkpt lat="44.12743" lon="2.28647">
        <ele>342.37</ele>
        <time>2015-09-15T13:41:49Z</time>
      </trkpt>
      <trkpt lat="44.12751" lon="2.28633">
        <ele>340.92</ele>
        <time>2015-09-15T13:42:01Z</time>
      </trkpt>
      <trkpt lat="44.12754" lon="2.28619">
        <ele>338.52</ele>
        <time>2015-09-15T13:42:15Z</time>
      </trkpt>
      <trkpt lat="44.1276" lon="2.28601">
        <ele>336.12</ele>
        <time>2015-09-15T13:42:29Z</time>
      </trkpt>
      <trkpt lat="44.12764" lon="2.2859">
        <ele>333.71</ele>
        <time>2015-09-15T13:42:42Z</time>
      </trkpt>
      <trkpt lat="44.12772" lon="2.28578">
        <ele>332.75</ele>
        <time>2015-09-15T13:42:56Z</time>
      </trkpt>
      <trkpt lat="44.12779" lon="2.28561">
        <ele>331.79</ele>
        <time>2015-09-15T13:43:11Z</time>
      </trkpt>
      <trkpt lat="44.12789" lon="2.2854">
        <ele>330.83</ele>
        <time>2015-09-15T13:43:26Z</time>
      </trkpt>
      <trkpt lat="44.12797" lon="2.28514">
        <ele>330.35</ele>
        <time>2015-09-15T13:43:43Z</time>
      </trkpt>
      <trkpt lat="44.128" lon="2.28488">
        <ele>330.35</ele>
        <time>2015-09-15T13:43:59Z</time>
      </trkpt>
      <trkpt lat="44.12803" lon="2.28468">
        <ele>330.35</ele>
        <time>2015-09-15T13:44:17Z</time>
      </trkpt>
      <trkpt lat="44.12794" lon="2.2846">
        <ele>330.35</ele>
        <time>2015-09-15T13:44:41Z</time>
      </trkpt>
      <trkpt lat="44.12787" lon="2.28458">
        <ele>330.83</ele>
        <time>2015-09-15T13:45:08Z</time>
      </trkpt>
      <trkpt lat="44.12784" lon="2.28455">
        <ele>330.83</ele>
        <time>2015-09-15T13:45:26Z</time>
      </trkpt>
      <trkpt lat="44.12786" lon="2.28452">
        <ele>331.31</ele>
        <time>2015-09-15T13:45:44Z</time>
      </trkpt>
      <trkpt lat="44.12789" lon="2.28455">
        <ele>331.31</ele>
        <time>2015-09-15T13:46:03Z</time>
      </trkpt>
      <trkpt lat="44.12793" lon="2.28457">
        <ele>331.31</ele>
        <time>2015-09-15T13:46:26Z</time>
      </trkpt>
      <trkpt lat="44.12793" lon="2.28459">
        <ele>331.31</ele>
        <time>2015-09-15T13:46:51Z</time>
      </trkpt>
      <trkpt lat="44.12794" lon="2.28469">
        <ele>330.83</ele>
        <time>2015-09-15T13:47:19Z</time>
      </trkpt>
      <trkpt lat="44.12793" lon="2.28476">
        <ele>330.35</ele>
        <time>2015-09-15T13:47:45Z</time>
      </trkpt>
      <trkpt lat="44.12788" lon="2.28477">
        <ele>330.35</ele>
        <time>2015-09-15T13:48:08Z</time>
      </trkpt>
      <trkpt lat="44.1279" lon="2.28475">
        <ele>330.35</ele>
        <time>2015-09-15T13:48:25Z</time>
      </trkpt>
      <trkpt lat="44.12791" lon="2.28472">
        <ele>329.87</ele>
        <time>2015-09-15T13:48:51Z</time>
      </trkpt>
      <trkpt lat="44.12792" lon="2.28472">
        <ele>329.39</ele>
        <time>2015-09-15T13:49:12Z</time>
      </trkpt>
      <trkpt lat="44.12794" lon="2.28473">
        <ele>329.39</ele>
        <time>2015-09-15T13:49:35Z</time>
      </trkpt>
      <trkpt lat="44.12797" lon="2.28468">
        <ele>328.91</ele>
        <time>2015-09-15T13:49:47Z</time>
      </trkpt>
      <trkpt lat="44.12797" lon="2.28471">
        <ele>330.35</ele>
        <time>2015-09-15T13:50:00Z</time>
      </trkpt>
      <trkpt lat="44.12797" lon="2.28473">
        <ele>329.87</ele>
        <time>2015-09-15T13:50:22Z</time>
      </trkpt>
      <trkpt lat="44.128" lon="2.28475">
        <ele>329.39</ele>
        <time>2015-09-15T13:50:52Z</time>
      </trkpt>
      <trkpt lat="44.12798" lon="2.28477">
        <ele>329.39</ele>
        <time>2015-09-15T13:51:16Z</time>
      </trkpt>
      <trkpt lat="44.12799" lon="2.28478">
        <ele>328.91</ele>
        <time>2015-09-15T13:51:40Z</time>
      </trkpt>
      <trkpt lat="44.12795" lon="2.28473">
        <ele>328.91</ele>
        <time>2015-09-15T13:51:55Z</time>
      </trkpt>
      <trkpt lat="44.12796" lon="2.28472">
        <ele>328.43</ele>
        <time>2015-09-15T13:52:14Z</time>
      </trkpt>
      <trkpt lat="44.12796" lon="2.28471">
        <ele>327.95</ele>
        <time>2015-09-15T13:52:44Z</time>
      </trkpt>
      <trkpt lat="44.12796" lon="2.28471">
        <ele>327.95</ele>
        <time>2015-09-15T13:53:06Z</time>
      </trkpt>
      <trkpt lat="44.12796" lon="2.28472">
        <ele>327.47</ele>
        <time>2015-09-15T13:53:21Z</time>
      </trkpt>
      <trkpt lat="44.12786" lon="2.28473">
        <ele>327.95</ele>
        <time>2015-09-15T13:53:36Z</time>
      </trkpt>
      <trkpt lat="44.12776" lon="2.28478">
        <ele>327.95</ele>
        <time>2015-09-15T13:53:51Z</time>
      </trkpt>
      <trkpt lat="44.12772" lon="2.2848">
        <ele>327.95</ele>
        <time>2015-09-15T13:53:55Z</time>
      </trkpt>
      <trkpt lat="44.12758" lon="2.28483">
        <ele>327.95</ele>
        <time>2015-09-15T13:54:10Z</time>
      </trkpt>
      <trkpt lat="44.12744" lon="2.28486">
        <ele>327.47</ele>
        <time>2015-09-15T13:54:25Z</time>
      </trkpt>
      <trkpt lat="44.12731" lon="2.2849">
        <ele>326.99</ele>
        <time>2015-09-15T13:54:39Z</time>
      </trkpt>
      <trkpt lat="44.12723" lon="2.28497">
        <ele>326.99</ele>
        <time>2015-09-15T13:54:47Z</time>
      </trkpt>
      <trkpt lat="44.12722" lon="2.28499">
        <ele>326.99</ele>
        <time>2015-09-15T13:54:49Z</time>
      </trkpt>
      <trkpt lat="44.12715" lon="2.28506">
        <ele>326.99</ele>
        <time>2015-09-15T13:54:56Z</time>
      </trkpt>
      <trkpt lat="44.12702" lon="2.28516">
        <ele>324.58</ele>
        <time>2015-09-15T13:55:11Z</time>
      </trkpt>
      <trkpt lat="44.12688" lon="2.2852">
        <ele>324.58</ele>
        <time>2015-09-15T13:55:24Z</time>
      </trkpt>
      <trkpt lat="44.12685" lon="2.28521">
        <ele>324.58</ele>
        <time>2015-09-15T13:55:27Z</time>
      </trkpt>
      <trkpt lat="44.12671" lon="2.28531">
        <ele>326.02</ele>
        <time>2015-09-15T13:55:43Z</time>
      </trkpt>
      <trkpt lat="44.12662" lon="2.28534">
        <ele>327.95</ele>
        <time>2015-09-15T13:55:56Z</time>
      </trkpt>
      <trkpt lat="44.12655" lon="2.28527">
        <ele>329.39</ele>
        <time>2015-09-15T13:56:11Z</time>
      </trkpt>
      <trkpt lat="44.12665" lon="2.2852">
        <ele>331.31</ele>
        <time>2015-09-15T13:56:26Z</time>
      </trkpt>
      <trkpt lat="44.12669" lon="2.28509">
        <ele>333.23</ele>
        <time>2015-09-15T13:56:40Z</time>
      </trkpt>
      <trkpt lat="44.12676" lon="2.28494">
        <ele>335.16</ele>
        <time>2015-09-15T13:56:57Z</time>
      </trkpt>
      <trkpt lat="44.12682" lon="2.28487">
        <ele>336.6</ele>
        <time>2015-09-15T13:57:09Z</time>
      </trkpt>
      <trkpt lat="44.1269" lon="2.2848">
        <ele>338.52</ele>
        <time>2015-09-15T13:57:23Z</time>
      </trkpt>
      <trkpt lat="44.12697" lon="2.28472">
        <ele>339.48</ele>
        <time>2015-09-15T13:57:35Z</time>
      </trkpt>
      <trkpt lat="44.12697" lon="2.28463">
        <ele>341.89</ele>
        <time>2015-09-15T13:57:48Z</time>
      </trkpt>
      <trkpt lat="44.12692" lon="2.28467">
        <ele>342.85</ele>
        <time>2015-09-15T13:58:01Z</time>
      </trkpt>
      <trkpt lat="44.12685" lon="2.28468">
        <ele>343.33</ele>
        <time>2015-09-15T13:58:15Z</time>
      </trkpt>
      <trkpt lat="44.12678" lon="2.28468">
        <ele>344.29</ele>
        <time>2015-09-15T13:58:26Z</time>
      </trkpt>
      <trkpt lat="44.12667" lon="2.28469">
        <ele>345.25</ele>
        <time>2015-09-15T13:58:40Z</time>
      </trkpt>
      <trkpt lat="44.12654" lon="2.28475">
        <ele>347.17</ele>
        <time>2015-09-15T13:58:55Z</time>
      </trkpt>
      <trkpt lat="44.12642" lon="2.28478">
        <ele>347.17</ele>
        <time>2015-09-15T13:59:10Z</time>
      </trkpt>
      <trkpt lat="44.12633" lon="2.28481">
        <ele>348.13</ele>
        <time>2015-09-15T13:59:25Z</time>
      </trkpt>
      <trkpt lat="44.12623" lon="2.28487">
        <ele>349.1</ele>
        <time>2015-09-15T13:59:39Z</time>
      </trkpt>
      <trkpt lat="44.12609" lon="2.2849">
        <ele>351.02</ele>
        <time>2015-09-15T13:59:54Z</time>
      </trkpt>
      <trkpt lat="44.126" lon="2.28491">
        <ele>351.02</ele>
        <time>2015-09-15T14:00:07Z</time>
      </trkpt>
      <trkpt lat="44.12591" lon="2.28492">
        <ele>352.94</ele>
        <time>2015-09-15T14:00:16Z</time>
      </trkpt>
      <trkpt lat="44.12581" lon="2.28487">
        <ele>354.86</ele>
        <time>2015-09-15T14:00:29Z</time>
      </trkpt>
      <trkpt lat="44.12585" lon="2.28484">
        <ele>355.34</ele>
        <time>2015-09-15T14:00:36Z</time>
      </trkpt>
      <trkpt lat="44.12598" lon="2.28481">
        <ele>356.31</ele>
        <time>2015-09-15T14:00:51Z</time>
      </trkpt>
      <trkpt lat="44.12602" lon="2.28466">
        <ele>356.79</ele>
        <time>2015-09-15T14:01:06Z</time>
      </trkpt>
      <trkpt lat="44.12605" lon="2.28464">
        <ele>355.34</ele>
        <time>2015-09-15T14:01:17Z</time>
      </trkpt>
      <trkpt lat="44.12605" lon="2.28463">
        <ele>356.79</ele>
        <time>2015-09-15T14:01:21Z</time>
      </trkpt>
      <trkpt lat="44.12605" lon="2.28464">
        <ele>356.31</ele>
        <time>2015-09-15T14:01:39Z</time>
      </trkpt>
      <trkpt lat="44.12608" lon="2.28465">
        <ele>356.31</ele>
        <time>2015-09-15T14:01:51Z</time>
      </trkpt>
      <trkpt lat="44.12608" lon="2.28465">
        <ele>355.83</ele>
        <time>2015-09-15T14:02:12Z</time>
      </trkpt>
      <trkpt lat="44.12607" lon="2.28465">
        <ele>355.83</ele>
        <time>2015-09-15T14:02:29Z</time>
      </trkpt>
      <trkpt lat="44.12607" lon="2.28465">
        <ele>354.38</ele>
        <time>2015-09-15T14:02:54Z</time>
      </trkpt>
      <trkpt lat="44.12609" lon="2.28464">
        <ele>353.9</ele>
        <time>2015-09-15T14:03:07Z</time>
      </trkpt>
      <trkpt lat="44.12607" lon="2.28466">
        <ele>353.42</ele>
        <time>2015-09-15T14:03:19Z</time>
      </trkpt>
      <trkpt lat="44.12607" lon="2.28468">
        <ele>353.42</ele>
        <time>2015-09-15T14:03:31Z</time>
      </trkpt>
      <trkpt lat="44.12605" lon="2.2847">
        <ele>352.94</ele>
        <time>2015-09-15T14:03:45Z</time>
      </trkpt>
      <trkpt lat="44.12597" lon="2.28477">
        <ele>352.94</ele>
        <time>2015-09-15T14:04:01Z</time>
      </trkpt>
      <trkpt lat="44.12587" lon="2.28479">
        <ele>352.94</ele>
        <time>2015-09-15T14:04:15Z</time>
      </trkpt>
      <trkpt lat="44.12583" lon="2.28476">
        <ele>356.31</ele>
        <time>2015-09-15T14:04:31Z</time>
      </trkpt>
      <trkpt lat="44.12576" lon="2.28471">
        <ele>358.23</ele>
        <time>2015-09-15T14:04:43Z</time>
      </trkpt>
      <trkpt lat="44.12569" lon="2.28471">
        <ele>360.15</ele>
        <time>2015-09-15T14:04:56Z</time>
      </trkpt>
      <trkpt lat="44.12563" lon="2.28469">
        <ele>361.11</ele>
        <time>2015-09-15T14:05:04Z</time>
      </trkpt>
      <trkpt lat="44.12558" lon="2.28464">
        <ele>361.59</ele>
        <time>2015-09-15T14:05:15Z</time>
      </trkpt>
      <trkpt lat="44.1256" lon="2.28456">
        <ele>361.59</ele>
        <time>2015-09-15T14:05:27Z</time>
      </trkpt>
      <trkpt lat="44.12568" lon="2.28459">
        <ele>364</ele>
        <time>2015-09-15T14:05:40Z</time>
      </trkpt>
      <trkpt lat="44.12568" lon="2.28461">
        <ele>364.48</ele>
        <time>2015-09-15T14:05:54Z</time>
      </trkpt>
      <trkpt lat="44.12568" lon="2.2846">
        <ele>363.04</ele>
        <time>2015-09-15T14:06:07Z</time>
      </trkpt>
      <trkpt lat="44.12567" lon="2.28458">
        <ele>364</ele>
        <time>2015-09-15T14:06:24Z</time>
      </trkpt>
      <trkpt lat="44.12567" lon="2.28458">
        <ele>363.52</ele>
        <time>2015-09-15T14:06:41Z</time>
      </trkpt>
      <trkpt lat="44.12566" lon="2.28457">
        <ele>363.52</ele>
        <time>2015-09-15T14:06:56Z</time>
      </trkpt>
      <trkpt lat="44.12564" lon="2.28457">
        <ele>362.07</ele>
        <time>2015-09-15T14:06:58Z</time>
      </trkpt>
      <trkpt lat="44.12561" lon="2.28455">
        <ele>360.63</ele>
        <time>2015-09-15T14:07:12Z</time>
      </trkpt>
      <trkpt lat="44.12557" lon="2.28456">
        <ele>360.63</ele>
        <time>2015-09-15T14:07:24Z</time>
      </trkpt>
      <trkpt lat="44.12557" lon="2.28454">
        <ele>360.15</ele>
        <time>2015-09-15T14:07:38Z</time>
      </trkpt>
      <trkpt lat="44.12557" lon="2.28455">
        <ele>359.67</ele>
        <time>2015-09-15T14:07:48Z</time>
      </trkpt>
      <trkpt lat="44.12557" lon="2.28455">
        <ele>359.19</ele>
        <time>2015-09-15T14:08:04Z</time>
      </trkpt>
      <trkpt lat="44.12557" lon="2.28455">
        <ele>360.63</ele>
        <time>2015-09-15T14:08:18Z</time>
      </trkpt>
      <trkpt lat="44.12557" lon="2.28455">
        <ele>360.63</ele>
        <time>2015-09-15T14:08:19Z</time>
      </trkpt>
      <trkpt lat="44.12558" lon="2.28457">
        <ele>361.11</ele>
        <time>2015-09-15T14:08:36Z</time>
      </trkpt>
      <trkpt lat="44.12561" lon="2.28455">
        <ele>360.63</ele>
        <time>2015-09-15T14:08:48Z</time>
      </trkpt>
      <trkpt lat="44.12555" lon="2.28452">
        <ele>360.63</ele>
        <time>2015-09-15T14:09:00Z</time>
      </trkpt>
      <trkpt lat="44.12555" lon="2.28448">
        <ele>360.63</ele>
        <time>2015-09-15T14:09:12Z</time>
      </trkpt>
      <trkpt lat="44.12555" lon="2.28454">
        <ele>359.19</ele>
        <time>2015-09-15T14:09:22Z</time>
      </trkpt>
      <trkpt lat="44.12555" lon="2.28456">
        <ele>360.63</ele>
        <time>2015-09-15T14:09:25Z</time>
      </trkpt>
      <trkpt lat="44.12556" lon="2.2846">
        <ele>359.19</ele>
        <time>2015-09-15T14:09:31Z</time>
      </trkpt>
      <trkpt lat="44.12558" lon="2.28463">
        <ele>359.19</ele>
        <time>2015-09-15T14:09:35Z</time>
      </trkpt>
      <trkpt lat="44.12566" lon="2.28472">
        <ele>356.79</ele>
        <time>2015-09-15T14:09:50Z</time>
      </trkpt>
      <trkpt lat="44.1256" lon="2.28473">
        <ele>355.34</ele>
        <time>2015-09-15T14:09:57Z</time>
      </trkpt>
      <trkpt lat="44.1255" lon="2.2847">
        <ele>355.34</ele>
        <time>2015-09-15T14:10:12Z</time>
      </trkpt>
      <trkpt lat="44.12541" lon="2.2847">
        <ele>354.38</ele>
        <time>2015-09-15T14:10:25Z</time>
      </trkpt>
      <trkpt lat="44.12539" lon="2.28469">
        <ele>354.38</ele>
        <time>2015-09-15T14:10:27Z</time>
      </trkpt>
      <trkpt lat="44.12535" lon="2.28467">
        <ele>356.79</ele>
        <time>2015-09-15T14:10:31Z</time>
      </trkpt>
      <trkpt lat="44.1253" lon="2.28465">
        <ele>356.31</ele>
        <time>2015-09-15T14:10:46Z</time>
      </trkpt>
      <trkpt lat="44.12533" lon="2.28464">
        <ele>355.83</ele>
        <time>2015-09-15T14:10:49Z</time>
      </trkpt>
      <trkpt lat="44.12536" lon="2.2846">
        <ele>356.79</ele>
        <time>2015-09-15T14:10:53Z</time>
      </trkpt>
      <trkpt lat="44.12537" lon="2.28457">
        <ele>358.23</ele>
        <time>2015-09-15T14:10:55Z</time>
      </trkpt>
      <trkpt lat="44.12537" lon="2.28455">
        <ele>356.79</ele>
        <time>2015-09-15T14:11:00Z</time>
      </trkpt>
      <trkpt lat="44.12537" lon="2.28455">
        <ele>358.71</ele>
        <time>2015-09-15T14:11:07Z</time>
      </trkpt>
      <trkpt lat="44.12536" lon="2.28455">
        <ele>358.71</ele>
        <time>2015-09-15T14:11:08Z</time>
      </trkpt>
      <trkpt lat="44.12535" lon="2.28457">
        <ele>357.27</ele>
        <time>2015-09-15T14:11:10Z</time>
      </trkpt>
      <trkpt lat="44.12533" lon="2.2846">
        <ele>358.71</ele>
        <time>2015-09-15T14:11:13Z</time>
      </trkpt>
      <trkpt lat="44.12532" lon="2.28462">
        <ele>355.34</ele>
        <time>2015-09-15T14:11:15Z</time>
      </trkpt>
      <trkpt lat="44.12532" lon="2.28461">
        <ele>355.34</ele>
        <time>2015-09-15T14:11:16Z</time>
      </trkpt>
      <trkpt lat="44.12532" lon="2.28461">
        <ele>355.34</ele>
        <time>2015-09-15T14:11:20Z</time>
      </trkpt>
      <trkpt lat="44.12528" lon="2.28464">
        <ele>355.34</ele>
        <time>2015-09-15T14:11:35Z</time>
      </trkpt>
      <trkpt lat="44.12529" lon="2.28467">
        <ele>355.34</ele>
        <time>2015-09-15T14:11:50Z</time>
      </trkpt>
      <trkpt lat="44.12528" lon="2.28465">
        <ele>355.34</ele>
        <time>2015-09-15T14:12:01Z</time>
      </trkpt>
      <trkpt lat="44.12527" lon="2.28465">
        <ele>356.79</ele>
        <time>2015-09-15T14:12:10Z</time>
      </trkpt>
      <trkpt lat="44.12526" lon="2.28464">
        <ele>354.86</ele>
        <time>2015-09-15T14:12:28Z</time>
      </trkpt>
      <trkpt lat="44.12522" lon="2.28463">
        <ele>353.9</ele>
        <time>2015-09-15T14:12:41Z</time>
      </trkpt>
      <trkpt lat="44.12517" lon="2.28462">
        <ele>351.02</ele>
        <time>2015-09-15T14:12:53Z</time>
      </trkpt>
      <trkpt lat="44.12515" lon="2.28466">
        <ele>350.06</ele>
        <time>2015-09-15T14:12:59Z</time>
      </trkpt>
      <trkpt lat="44.12513" lon="2.28469">
        <ele>348.62</ele>
        <time>2015-09-15T14:13:03Z</time>
      </trkpt>
      <trkpt lat="44.1251" lon="2.28472">
        <ele>350.06</ele>
        <time>2015-09-15T14:13:08Z</time>
      </trkpt>
      <trkpt lat="44.12504" lon="2.28472">
        <ele>349.58</ele>
        <time>2015-09-15T14:13:20Z</time>
      </trkpt>
      <trkpt lat="44.12499" lon="2.28472">
        <ele>349.1</ele>
        <time>2015-09-15T14:13:34Z</time>
      </trkpt>
      <trkpt lat="44.12497" lon="2.28473">
        <ele>350.06</ele>
        <time>2015-09-15T14:13:46Z</time>
      </trkpt>
      <trkpt lat="44.12496" lon="2.28476">
        <ele>350.06</ele>
        <time>2015-09-15T14:14:18Z</time>
      </trkpt>
      <trkpt lat="44.12497" lon="2.28474">
        <ele>351.02</ele>
        <time>2015-09-15T14:14:37Z</time>
      </trkpt>
      <trkpt lat="44.12495" lon="2.2847">
        <ele>350.06</ele>
        <time>2015-09-15T14:14:52Z</time>
      </trkpt>
      <trkpt lat="44.12495" lon="2.28466">
        <ele>351.5</ele>
        <time>2015-09-15T14:15:02Z</time>
      </trkpt>
      <trkpt lat="44.12491" lon="2.28467">
        <ele>351.5</ele>
        <time>2015-09-15T14:15:16Z</time>
      </trkpt>
      <trkpt lat="44.12483" lon="2.28474">
        <ele>349.58</ele>
        <time>2015-09-15T14:15:30Z</time>
      </trkpt>
      <trkpt lat="44.12473" lon="2.28488">
        <ele>348.13</ele>
        <time>2015-09-15T14:15:47Z</time>
      </trkpt>
      <trkpt lat="44.12463" lon="2.28493">
        <ele>345.73</ele>
        <time>2015-09-15T14:16:00Z</time>
      </trkpt>
      <trkpt lat="44.12455" lon="2.28498">
        <ele>344.77</ele>
        <time>2015-09-15T14:16:14Z</time>
      </trkpt>
      <trkpt lat="44.1245" lon="2.28505">
        <ele>344.29</ele>
        <time>2015-09-15T14:16:28Z</time>
      </trkpt>
      <trkpt lat="44.1244" lon="2.28513">
        <ele>343.33</ele>
        <time>2015-09-15T14:16:41Z</time>
      </trkpt>
      <trkpt lat="44.12427" lon="2.28518">
        <ele>344.29</ele>
        <time>2015-09-15T14:17:00Z</time>
      </trkpt>
      <trkpt lat="44.12425" lon="2.28519">
        <ele>344.29</ele>
        <time>2015-09-15T14:17:01Z</time>
      </trkpt>
      <trkpt lat="44.12414" lon="2.28522">
        <ele>345.25</ele>
        <time>2015-09-15T14:17:14Z</time>
      </trkpt>
      <trkpt lat="44.12406" lon="2.28525">
        <ele>347.17</ele>
        <time>2015-09-15T14:17:27Z</time>
      </trkpt>
      <trkpt lat="44.12392" lon="2.28531">
        <ele>348.62</ele>
        <time>2015-09-15T14:17:41Z</time>
      </trkpt>
      <trkpt lat="44.12381" lon="2.28541">
        <ele>350.06</ele>
        <time>2015-09-15T14:17:55Z</time>
      </trkpt>
      <trkpt lat="44.12369" lon="2.28554">
        <ele>352.94</ele>
        <time>2015-09-15T14:18:10Z</time>
      </trkpt>
      <trkpt lat="44.12354" lon="2.28564">
        <ele>354.38</ele>
        <time>2015-09-15T14:18:25Z</time>
      </trkpt>
      <trkpt lat="44.12339" lon="2.28574">
        <ele>356.31</ele>
        <time>2015-09-15T14:18:40Z</time>
      </trkpt>
      <trkpt lat="44.1233" lon="2.28579">
        <ele>358.23</ele>
        <time>2015-09-15T14:18:52Z</time>
      </trkpt>
      <trkpt lat="44.12319" lon="2.28587">
        <ele>359.67</ele>
        <time>2015-09-15T14:19:06Z</time>
      </trkpt>
      <trkpt lat="44.12308" lon="2.28594">
        <ele>361.11</ele>
        <time>2015-09-15T14:19:20Z</time>
      </trkpt>
      <trkpt lat="44.123" lon="2.28604">
        <ele>362.07</ele>
        <time>2015-09-15T14:19:33Z</time>
      </trkpt>
      <trkpt lat="44.12288" lon="2.28614">
        <ele>364.48</ele>
        <time>2015-09-15T14:19:48Z</time>
      </trkpt>
      <trkpt lat="44.12275" lon="2.28617">
        <ele>365.44</ele>
        <time>2015-09-15T14:20:03Z</time>
      </trkpt>
      <trkpt lat="44.12262" lon="2.28625">
        <ele>367.84</ele>
        <time>2015-09-15T14:20:18Z</time>
      </trkpt>
      <trkpt lat="44.1226" lon="2.28627">
        <ele>368.32</ele>
        <time>2015-09-15T14:20:20Z</time>
      </trkpt>
      <trkpt lat="44.12252" lon="2.28632">
        <ele>369.76</ele>
        <time>2015-09-15T14:20:33Z</time>
      </trkpt>
      <trkpt lat="44.12241" lon="2.28639">
        <ele>371.21</ele>
        <time>2015-09-15T14:20:46Z</time>
      </trkpt>
      <trkpt lat="44.12235" lon="2.28642">
        <ele>372.65</ele>
        <time>2015-09-15T14:20:51Z</time>
      </trkpt>
      <trkpt lat="44.12223" lon="2.28649">
        <ele>374.09</ele>
        <time>2015-09-15T14:21:03Z</time>
      </trkpt>
      <trkpt lat="44.12211" lon="2.28654">
        <ele>376.01</ele>
        <time>2015-09-15T14:21:18Z</time>
      </trkpt>
      <trkpt lat="44.122" lon="2.28662">
        <ele>377.45</ele>
        <time>2015-09-15T14:21:30Z</time>
      </trkpt>
      <trkpt lat="44.1219" lon="2.28665">
        <ele>378.9</ele>
        <time>2015-09-15T14:21:43Z</time>
      </trkpt>
      <trkpt lat="44.12176" lon="2.28664">
        <ele>380.34</ele>
        <time>2015-09-15T14:21:55Z</time>
      </trkpt>
      <trkpt lat="44.12161" lon="2.28662">
        <ele>382.26</ele>
        <time>2015-09-15T14:22:08Z</time>
      </trkpt>
      <trkpt lat="44.12155" lon="2.28662">
        <ele>382.74</ele>
        <time>2015-09-15T14:22:14Z</time>
      </trkpt>
      <trkpt lat="44.12145" lon="2.2866">
        <ele>384.18</ele>
        <time>2015-09-15T14:22:27Z</time>
      </trkpt>
      <trkpt lat="44.12131" lon="2.28663">
        <ele>385.63</ele>
        <time>2015-09-15T14:22:43Z</time>
      </trkpt>
      <trkpt lat="44.12119" lon="2.28668">
        <ele>386.11</ele>
        <time>2015-09-15T14:22:57Z</time>
      </trkpt>
      <trkpt lat="44.1211" lon="2.28665">
        <ele>387.07</ele>
        <time>2015-09-15T14:23:11Z</time>
      </trkpt>
      <trkpt lat="44.12096" lon="2.28659">
        <ele>389.47</ele>
        <time>2015-09-15T14:23:26Z</time>
      </trkpt>
      <trkpt lat="44.12086" lon="2.28658">
        <ele>390.91</ele>
        <time>2015-09-15T14:23:38Z</time>
      </trkpt>
      <trkpt lat="44.12078" lon="2.28659">
        <ele>392.36</ele>
        <time>2015-09-15T14:23:49Z</time>
      </trkpt>
      <trkpt lat="44.12064" lon="2.28665">
        <ele>394.28</ele>
        <time>2015-09-15T14:24:03Z</time>
      </trkpt>
      <trkpt lat="44.12057" lon="2.28664">
        <ele>394.28</ele>
        <time>2015-09-15T14:24:08Z</time>
      </trkpt>
      <trkpt lat="44.12044" lon="2.28664">
        <ele>395.72</ele>
        <time>2015-09-15T14:24:22Z</time>
      </trkpt>
      <trkpt lat="44.1203" lon="2.28664">
        <ele>396.68</ele>
        <time>2015-09-15T14:24:36Z</time>
      </trkpt>
      <trkpt lat="44.12019" lon="2.28665">
        <ele>397.64</ele>
        <time>2015-09-15T14:24:49Z</time>
      </trkpt>
      <trkpt lat="44.12018" lon="2.28664">
        <ele>397.64</ele>
        <time>2015-09-15T14:24:50Z</time>
      </trkpt>
      <trkpt lat="44.12008" lon="2.28659">
        <ele>398.6</ele>
        <time>2015-09-15T14:25:01Z</time>
      </trkpt>
      <trkpt lat="44.11996" lon="2.28657">
        <ele>399.08</ele>
        <time>2015-09-15T14:25:12Z</time>
      </trkpt>
      <trkpt lat="44.11983" lon="2.2866">
        <ele>399.57</ele>
        <time>2015-09-15T14:25:25Z</time>
      </trkpt>
      <trkpt lat="44.11982" lon="2.28661">
        <ele>399.57</ele>
        <time>2015-09-15T14:25:26Z</time>
      </trkpt>
      <trkpt lat="44.11976" lon="2.28669">
        <ele>399.57</ele>
        <time>2015-09-15T14:25:39Z</time>
      </trkpt>
      <trkpt lat="44.11976" lon="2.2867">
        <ele>399.57</ele>
        <time>2015-09-15T14:25:40Z</time>
      </trkpt>
      <trkpt lat="44.11986" lon="2.28681">
        <ele>401.01</ele>
        <time>2015-09-15T14:25:56Z</time>
      </trkpt>
      <trkpt lat="44.11996" lon="2.28688">
        <ele>402.45</ele>
        <time>2015-09-15T14:26:10Z</time>
      </trkpt>
      <trkpt lat="44.12004" lon="2.28698">
        <ele>403.89</ele>
        <time>2015-09-15T14:26:23Z</time>
      </trkpt>
      <trkpt lat="44.12016" lon="2.2871">
        <ele>404.85</ele>
        <time>2015-09-15T14:26:36Z</time>
      </trkpt>
      <trkpt lat="44.12027" lon="2.2872">
        <ele>406.29</ele>
        <time>2015-09-15T14:26:49Z</time>
      </trkpt>
      <trkpt lat="44.1204" lon="2.28737">
        <ele>407.26</ele>
        <time>2015-09-15T14:27:05Z</time>
      </trkpt>
      <trkpt lat="44.12046" lon="2.28748">
        <ele>408.22</ele>
        <time>2015-09-15T14:27:17Z</time>
      </trkpt>
      <trkpt lat="44.12057" lon="2.2875">
        <ele>408.22</ele>
        <time>2015-09-15T14:27:31Z</time>
      </trkpt>
      <trkpt lat="44.1206" lon="2.28753">
        <ele>408.7</ele>
        <time>2015-09-15T14:27:46Z</time>
      </trkpt>
      <trkpt lat="44.12062" lon="2.28763">
        <ele>407.26</ele>
        <time>2015-09-15T14:28:00Z</time>
      </trkpt>
      <trkpt lat="44.12065" lon="2.28774">
        <ele>407.74</ele>
        <time>2015-09-15T14:28:17Z</time>
      </trkpt>
      <trkpt lat="44.12067" lon="2.2879">
        <ele>406.77</ele>
        <time>2015-09-15T14:28:32Z</time>
      </trkpt>
      <trkpt lat="44.12066" lon="2.28806">
        <ele>405.81</ele>
        <time>2015-09-15T14:28:46Z</time>
      </trkpt>
      <trkpt lat="44.12071" lon="2.28815">
        <ele>407.26</ele>
        <time>2015-09-15T14:28:55Z</time>
      </trkpt>
      <trkpt lat="44.1207" lon="2.28835">
        <ele>409.18</ele>
        <time>2015-09-15T14:29:12Z</time>
      </trkpt>
      <trkpt lat="44.12066" lon="2.28853">
        <ele>410.62</ele>
        <time>2015-09-15T14:29:29Z</time>
      </trkpt>
      <trkpt lat="44.12059" lon="2.2887">
        <ele>412.54</ele>
        <time>2015-09-15T14:29:43Z</time>
      </trkpt>
      <trkpt lat="44.12055" lon="2.28879">
        <ele>413.5</ele>
        <time>2015-09-15T14:29:54Z</time>
      </trkpt>
      <trkpt lat="44.1205" lon="2.28892">
        <ele>415.91</ele>
        <time>2015-09-15T14:30:08Z</time>
      </trkpt>
      <trkpt lat="44.12044" lon="2.28906">
        <ele>416.87</ele>
        <time>2015-09-15T14:30:22Z</time>
      </trkpt>
      <trkpt lat="44.12038" lon="2.28916">
        <ele>417.83</ele>
        <time>2015-09-15T14:30:34Z</time>
      </trkpt>
      <trkpt lat="44.12034" lon="2.28925">
        <ele>418.79</ele>
        <time>2015-09-15T14:30:46Z</time>
      </trkpt>
      <trkpt lat="44.12028" lon="2.28936">
        <ele>420.23</ele>
        <time>2015-09-15T14:31:03Z</time>
      </trkpt>
      <trkpt lat="44.12023" lon="2.28946">
        <ele>422.64</ele>
        <time>2015-09-15T14:31:17Z</time>
      </trkpt>
      <trkpt lat="44.1202" lon="2.28947">
        <ele>424.56</ele>
        <time>2015-09-15T14:31:28Z</time>
      </trkpt>
      <trkpt lat="44.12019" lon="2.28945">
        <ele>425.52</ele>
        <time>2015-09-15T14:31:48Z</time>
      </trkpt>
      <trkpt lat="44.12019" lon="2.28937">
        <ele>427.44</ele>
        <time>2015-09-15T14:32:03Z</time>
      </trkpt>
      <trkpt lat="44.12021" lon="2.28929">
        <ele>428.89</ele>
        <time>2015-09-15T14:32:15Z</time>
      </trkpt>
      <trkpt lat="44.12024" lon="2.28923">
        <ele>429.85</ele>
        <time>2015-09-15T14:32:27Z</time>
      </trkpt>
      <trkpt lat="44.12026" lon="2.28915">
        <ele>431.77</ele>
        <time>2015-09-15T14:32:39Z</time>
      </trkpt>
      <trkpt lat="44.12024" lon="2.2891">
        <ele>434.17</ele>
        <time>2015-09-15T14:32:51Z</time>
      </trkpt>
      <trkpt lat="44.12025" lon="2.28901">
        <ele>435.61</ele>
        <time>2015-09-15T14:33:03Z</time>
      </trkpt>
      <trkpt lat="44.12019" lon="2.28908">
        <ele>437.06</ele>
        <time>2015-09-15T14:33:18Z</time>
      </trkpt>
      <trkpt lat="44.12012" lon="2.28917">
        <ele>439.46</ele>
        <time>2015-09-15T14:33:32Z</time>
      </trkpt>
      <trkpt lat="44.12005" lon="2.28927">
        <ele>440.9</ele>
        <time>2015-09-15T14:33:44Z</time>
      </trkpt>
      <trkpt lat="44.11997" lon="2.28942">
        <ele>440.42</ele>
        <time>2015-09-15T14:34:01Z</time>
      </trkpt>
      <trkpt lat="44.11989" lon="2.2896">
        <ele>440.9</ele>
        <time>2015-09-15T14:34:17Z</time>
      </trkpt>
      <trkpt lat="44.1198" lon="2.28974">
        <ele>442.34</ele>
        <time>2015-09-15T14:34:30Z</time>
      </trkpt>
      <trkpt lat="44.11973" lon="2.2899">
        <ele>444.27</ele>
        <time>2015-09-15T14:34:46Z</time>
      </trkpt>
      <trkpt lat="44.11969" lon="2.29008">
        <ele>445.71</ele>
        <time>2015-09-15T14:35:00Z</time>
      </trkpt>
      <trkpt lat="44.11966" lon="2.29022">
        <ele>447.15</ele>
        <time>2015-09-15T14:35:12Z</time>
      </trkpt>
      <trkpt lat="44.11962" lon="2.29037">
        <ele>448.59</ele>
        <time>2015-09-15T14:35:27Z</time>
      </trkpt>
      <trkpt lat="44.11955" lon="2.29057">
        <ele>450.03</ele>
        <time>2015-09-15T14:35:41Z</time>
      </trkpt>
      <trkpt lat="44.11949" lon="2.29075">
        <ele>451</ele>
        <time>2015-09-15T14:35:55Z</time>
      </trkpt>
      <trkpt lat="44.11942" lon="2.29093">
        <ele>452.92</ele>
        <time>2015-09-15T14:36:12Z</time>
      </trkpt>
      <trkpt lat="44.11936" lon="2.29106">
        <ele>453.88</ele>
        <time>2015-09-15T14:36:27Z</time>
      </trkpt>
      <trkpt lat="44.11934" lon="2.29122">
        <ele>453.88</ele>
        <time>2015-09-15T14:36:42Z</time>
      </trkpt>
      <trkpt lat="44.11933" lon="2.29124">
        <ele>452.92</ele>
        <time>2015-09-15T14:36:44Z</time>
      </trkpt>
      <trkpt lat="44.11927" lon="2.29139">
        <ele>451.96</ele>
        <time>2015-09-15T14:36:59Z</time>
      </trkpt>
      <trkpt lat="44.11923" lon="2.29149">
        <ele>451</ele>
        <time>2015-09-15T14:37:13Z</time>
      </trkpt>
      <trkpt lat="44.11921" lon="2.29162">
        <ele>448.59</ele>
        <time>2015-09-15T14:37:28Z</time>
      </trkpt>
      <trkpt lat="44.1192" lon="2.29179">
        <ele>447.63</ele>
        <time>2015-09-15T14:37:41Z</time>
      </trkpt>
      <trkpt lat="44.11921" lon="2.29199">
        <ele>446.19</ele>
        <time>2015-09-15T14:37:55Z</time>
      </trkpt>
      <trkpt lat="44.11923" lon="2.29215">
        <ele>444.75</ele>
        <time>2015-09-15T14:38:11Z</time>
      </trkpt>
      <trkpt lat="44.11931" lon="2.29223">
        <ele>444.75</ele>
        <time>2015-09-15T14:38:21Z</time>
      </trkpt>
      <trkpt lat="44.11946" lon="2.29237">
        <ele>444.27</ele>
        <time>2015-09-15T14:38:35Z</time>
      </trkpt>
      <trkpt lat="44.11959" lon="2.29251">
        <ele>442.34</ele>
        <time>2015-09-15T14:38:50Z</time>
      </trkpt>
      <trkpt lat="44.11972" lon="2.29258">
        <ele>440.42</ele>
        <time>2015-09-15T14:39:05Z</time>
      </trkpt>
      <trkpt lat="44.11985" lon="2.29266">
        <ele>438.5</ele>
        <time>2015-09-15T14:39:20Z</time>
      </trkpt>
      <trkpt lat="44.11997" lon="2.29282">
        <ele>436.58</ele>
        <time>2015-09-15T14:39:34Z</time>
      </trkpt>
      <trkpt lat="44.11997" lon="2.29287">
        <ele>436.1</ele>
        <time>2015-09-15T14:39:43Z</time>
      </trkpt>
      <trkpt lat="44.11999" lon="2.29299">
        <ele>434.65</ele>
        <time>2015-09-15T14:39:57Z</time>
      </trkpt>
      <trkpt lat="44.12004" lon="2.29314">
        <ele>435.13</ele>
        <time>2015-09-15T14:40:11Z</time>
      </trkpt>
      <trkpt lat="44.12014" lon="2.2933">
        <ele>434.65</ele>
        <time>2015-09-15T14:40:27Z</time>
      </trkpt>
      <trkpt lat="44.12026" lon="2.2934">
        <ele>434.65</ele>
        <time>2015-09-15T14:40:42Z</time>
      </trkpt>
      <trkpt lat="44.12035" lon="2.29359">
        <ele>435.13</ele>
        <time>2015-09-15T14:40:55Z</time>
      </trkpt>
      <trkpt lat="44.12042" lon="2.29385">
        <ele>434.17</ele>
        <time>2015-09-15T14:41:11Z</time>
      </trkpt>
      <trkpt lat="44.12047" lon="2.29404">
        <ele>431.77</ele>
        <time>2015-09-15T14:41:24Z</time>
      </trkpt>
      <trkpt lat="44.12049" lon="2.29417">
        <ele>430.81</ele>
        <time>2015-09-15T14:41:37Z</time>
      </trkpt>
      <trkpt lat="44.12051" lon="2.29433">
        <ele>430.81</ele>
        <time>2015-09-15T14:41:49Z</time>
      </trkpt>
      <trkpt lat="44.12052" lon="2.29437">
        <ele>431.77</ele>
        <time>2015-09-15T14:41:51Z</time>
      </trkpt>
      <trkpt lat="44.12054" lon="2.29452">
        <ele>434.17</ele>
        <time>2015-09-15T14:42:03Z</time>
      </trkpt>
      <trkpt lat="44.12057" lon="2.29462">
        <ele>434.65</ele>
        <time>2015-09-15T14:42:12Z</time>
      </trkpt>
      <trkpt lat="44.12063" lon="2.29473">
        <ele>434.65</ele>
        <time>2015-09-15T14:42:27Z</time>
      </trkpt>
      <trkpt lat="44.12065" lon="2.29478">
        <ele>433.21</ele>
        <time>2015-09-15T14:42:29Z</time>
      </trkpt>
      <trkpt lat="44.12067" lon="2.29482">
        <ele>433.21</ele>
        <time>2015-09-15T14:42:31Z</time>
      </trkpt>
      <trkpt lat="44.12074" lon="2.29497">
        <ele>433.21</ele>
        <time>2015-09-15T14:42:47Z</time>
      </trkpt>
      <trkpt lat="44.12076" lon="2.29505">
        <ele>434.65</ele>
        <time>2015-09-15T14:42:54Z</time>
      </trkpt>
      <trkpt lat="44.12079" lon="2.29525">
        <ele>435.13</ele>
        <time>2015-09-15T14:43:06Z</time>
      </trkpt>
      <trkpt lat="44.1208" lon="2.29536">
        <ele>436.58</ele>
        <time>2015-09-15T14:43:16Z</time>
      </trkpt>
      <trkpt lat="44.1208" lon="2.29551">
        <ele>437.54</ele>
        <time>2015-09-15T14:43:28Z</time>
      </trkpt>
      <trkpt lat="44.12083" lon="2.2956">
        <ele>436.58</ele>
        <time>2015-09-15T14:43:37Z</time>
      </trkpt>
      <trkpt lat="44.12087" lon="2.2957">
        <ele>433.21</ele>
        <time>2015-09-15T14:43:49Z</time>
      </trkpt>
      <trkpt lat="44.12093" lon="2.29578">
        <ele>431.29</ele>
        <time>2015-09-15T14:44:02Z</time>
      </trkpt>
      <trkpt lat="44.12098" lon="2.29594">
        <ele>430.81</ele>
        <time>2015-09-15T14:44:16Z</time>
      </trkpt>
      <trkpt lat="44.12095" lon="2.29611">
        <ele>430.81</ele>
        <time>2015-09-15T14:44:30Z</time>
      </trkpt>
      <trkpt lat="44.12091" lon="2.29626">
        <ele>434.17</ele>
        <time>2015-09-15T14:44:45Z</time>
      </trkpt>
      <trkpt lat="44.12087" lon="2.29638">
        <ele>434.17</ele>
        <time>2015-09-15T14:44:59Z</time>
      </trkpt>
      <trkpt lat="44.12084" lon="2.29654">
        <ele>433.21</ele>
        <time>2015-09-15T14:45:10Z</time>
      </trkpt>
      <trkpt lat="44.12078" lon="2.29667">
        <ele>432.25</ele>
        <time>2015-09-15T14:45:23Z</time>
      </trkpt>
      <trkpt lat="44.12073" lon="2.29682">
        <ele>430.81</ele>
        <time>2015-09-15T14:45:36Z</time>
      </trkpt>
      <trkpt lat="44.12065" lon="2.29694">
        <ele>430.33</ele>
        <time>2015-09-15T14:45:49Z</time>
      </trkpt>
      <trkpt lat="44.12055" lon="2.29709">
        <ele>429.85</ele>
        <time>2015-09-15T14:46:05Z</time>
      </trkpt>
      <trkpt lat="44.12045" lon="2.29718">
        <ele>429.85</ele>
        <time>2015-09-15T14:46:19Z</time>
      </trkpt>
      <trkpt lat="44.12032" lon="2.29728">
        <ele>429.85</ele>
        <time>2015-09-15T14:46:35Z</time>
      </trkpt>
      <trkpt lat="44.12029" lon="2.2973">
        <ele>431.29</ele>
        <time>2015-09-15T14:46:38Z</time>
      </trkpt>
      <trkpt lat="44.12024" lon="2.29743">
        <ele>432.25</ele>
        <time>2015-09-15T14:46:52Z</time>
      </trkpt>
      <trkpt lat="44.1201" lon="2.29752">
        <ele>434.17</ele>
        <time>2015-09-15T14:47:05Z</time>
      </trkpt>
      <trkpt lat="44.12002" lon="2.29766">
        <ele>436.1</ele>
        <time>2015-09-15T14:47:19Z</time>
      </trkpt>
      <trkpt lat="44.11997" lon="2.29782">
        <ele>435.13</ele>
        <time>2015-09-15T14:47:34Z</time>
      </trkpt>
      <trkpt lat="44.11994" lon="2.29798">
        <ele>432.73</ele>
        <time>2015-09-15T14:47:49Z</time>
      </trkpt>
      <trkpt lat="44.11995" lon="2.29814">
        <ele>430.81</ele>
        <time>2015-09-15T14:48:04Z</time>
      </trkpt>
      <trkpt lat="44.11997" lon="2.2983">
        <ele>428.4</ele>
        <time>2015-09-15T14:48:20Z</time>
      </trkpt>
      <trkpt lat="44.11999" lon="2.29843">
        <ele>426.96</ele>
        <time>2015-09-15T14:48:32Z</time>
      </trkpt>
      <trkpt lat="44.12002" lon="2.29854">
        <ele>426</ele>
        <time>2015-09-15T14:48:41Z</time>
      </trkpt>
      <trkpt lat="44.12006" lon="2.29871">
        <ele>423.6</ele>
        <time>2015-09-15T14:48:54Z</time>
      </trkpt>
      <trkpt lat="44.12008" lon="2.29888">
        <ele>421.68</ele>
        <time>2015-09-15T14:49:06Z</time>
      </trkpt>
      <trkpt lat="44.12013" lon="2.29906">
        <ele>420.71</ele>
        <time>2015-09-15T14:49:21Z</time>
      </trkpt>
      <trkpt lat="44.12015" lon="2.29918">
        <ele>419.27</ele>
        <time>2015-09-15T14:49:33Z</time>
      </trkpt>
      <trkpt lat="44.12019" lon="2.29933">
        <ele>416.87</ele>
        <time>2015-09-15T14:49:48Z</time>
      </trkpt>
      <trkpt lat="44.12026" lon="2.29944">
        <ele>414.95</ele>
        <time>2015-09-15T14:50:03Z</time>
      </trkpt>
      <trkpt lat="44.1204" lon="2.2996">
        <ele>413.02</ele>
        <time>2015-09-15T14:50:17Z</time>
      </trkpt>
      <trkpt lat="44.12052" lon="2.29976">
        <ele>411.58</ele>
        <time>2015-09-15T14:50:32Z</time>
      </trkpt>
      <trkpt lat="44.12062" lon="2.29971">
        <ele>409.18</ele>
        <time>2015-09-15T14:50:46Z</time>
      </trkpt>
      <trkpt lat="44.12066" lon="2.29961">
        <ele>407.74</ele>
        <time>2015-09-15T14:51:01Z</time>
      </trkpt>
      <trkpt lat="44.1207" lon="2.29944">
        <ele>406.29</ele>
        <time>2015-09-15T14:51:17Z</time>
      </trkpt>
      <trkpt lat="44.12079" lon="2.29923">
        <ele>404.37</ele>
        <time>2015-09-15T14:51:32Z</time>
      </trkpt>
      <trkpt lat="44.1208" lon="2.29922">
        <ele>402.93</ele>
        <time>2015-09-15T14:51:43Z</time>
      </trkpt>
      <trkpt lat="44.12081" lon="2.2993">
        <ele>402.45</ele>
        <time>2015-09-15T14:51:53Z</time>
      </trkpt>
      <trkpt lat="44.1208" lon="2.29937">
        <ele>401.97</ele>
        <time>2015-09-15T14:52:07Z</time>
      </trkpt>
      <trkpt lat="44.12078" lon="2.29953">
        <ele>401.01</ele>
        <time>2015-09-15T14:52:21Z</time>
      </trkpt>
      <trkpt lat="44.12075" lon="2.29965">
        <ele>400.53</ele>
        <time>2015-09-15T14:52:36Z</time>
      </trkpt>
      <trkpt lat="44.12073" lon="2.29975">
        <ele>399.57</ele>
        <time>2015-09-15T14:52:49Z</time>
      </trkpt>
      <trkpt lat="44.12075" lon="2.29989">
        <ele>398.12</ele>
        <time>2015-09-15T14:53:03Z</time>
      </trkpt>
      <trkpt lat="44.1208" lon="2.30015">
        <ele>396.68</ele>
        <time>2015-09-15T14:53:20Z</time>
      </trkpt>
      <trkpt lat="44.12085" lon="2.30031">
        <ele>394.76</ele>
        <time>2015-09-15T14:53:32Z</time>
      </trkpt>
      <trkpt lat="44.1209" lon="2.30049">
        <ele>393.32</ele>
        <time>2015-09-15T14:53:46Z</time>
      </trkpt>
      <trkpt lat="44.12094" lon="2.30065">
        <ele>391.87</ele>
        <time>2015-09-15T14:53:59Z</time>
      </trkpt>
      <trkpt lat="44.12099" lon="2.30084">
        <ele>391.87</ele>
        <time>2015-09-15T14:54:11Z</time>
      </trkpt>
      <trkpt lat="44.121" lon="2.30093">
        <ele>393.32</ele>
        <time>2015-09-15T14:54:17Z</time>
      </trkpt>
      <trkpt lat="44.12107" lon="2.30112">
        <ele>394.28</ele>
        <time>2015-09-15T14:54:31Z</time>
      </trkpt>
      <trkpt lat="44.12111" lon="2.30127">
        <ele>395.72</ele>
        <time>2015-09-15T14:54:44Z</time>
      </trkpt>
      <trkpt lat="44.12111" lon="2.30128">
        <ele>395.72</ele>
        <time>2015-09-15T14:54:45Z</time>
      </trkpt>
      <trkpt lat="44.12111" lon="2.30145">
        <ele>396.68</ele>
        <time>2015-09-15T14:54:56Z</time>
      </trkpt>
      <trkpt lat="44.1211" lon="2.30168">
        <ele>398.6</ele>
        <time>2015-09-15T14:55:10Z</time>
      </trkpt>
      <trkpt lat="44.12106" lon="2.302">
        <ele>399.08</ele>
        <time>2015-09-15T14:55:23Z</time>
      </trkpt>
      <trkpt lat="44.12099" lon="2.30221">
        <ele>399.57</ele>
        <time>2015-09-15T14:55:36Z</time>
      </trkpt>
      <trkpt lat="44.12095" lon="2.30238">
        <ele>401.01</ele>
        <time>2015-09-15T14:55:50Z</time>
      </trkpt>
      <trkpt lat="44.12086" lon="2.30255">
        <ele>401.97</ele>
        <time>2015-09-15T14:56:03Z</time>
      </trkpt>
      <trkpt lat="44.12081" lon="2.30271">
        <ele>400.53</ele>
        <time>2015-09-15T14:56:17Z</time>
      </trkpt>
      <trkpt lat="44.12073" lon="2.30296">
        <ele>400.05</ele>
        <time>2015-09-15T14:56:32Z</time>
      </trkpt>
      <trkpt lat="44.12064" lon="2.30307">
        <ele>400.05</ele>
        <time>2015-09-15T14:56:45Z</time>
      </trkpt>
      <trkpt lat="44.12052" lon="2.30314">
        <ele>399.57</ele>
        <time>2015-09-15T14:56:59Z</time>
      </trkpt>
      <trkpt lat="44.12036" lon="2.30324">
        <ele>399.57</ele>
        <time>2015-09-15T14:57:14Z</time>
      </trkpt>
      <trkpt lat="44.12024" lon="2.30326">
        <ele>399.08</ele>
        <time>2015-09-15T14:57:29Z</time>
      </trkpt>
      <trkpt lat="44.12007" lon="2.30327">
        <ele>399.08</ele>
        <time>2015-09-15T14:57:42Z</time>
      </trkpt>
      <trkpt lat="44.11995" lon="2.30329">
        <ele>400.05</ele>
        <time>2015-09-15T14:57:54Z</time>
      </trkpt>
      <trkpt lat="44.11985" lon="2.30342">
        <ele>399.08</ele>
        <time>2015-09-15T14:58:09Z</time>
      </trkpt>
      <trkpt lat="44.11977" lon="2.30353">
        <ele>397.64</ele>
        <time>2015-09-15T14:58:22Z</time>
      </trkpt>
      <trkpt lat="44.11972" lon="2.30362">
        <ele>395.72</ele>
        <time>2015-09-15T14:58:33Z</time>
      </trkpt>
      <trkpt lat="44.11965" lon="2.30376">
        <ele>392.36</ele>
        <time>2015-09-15T14:58:46Z</time>
      </trkpt>
      <trkpt lat="44.11958" lon="2.30391">
        <ele>390.91</ele>
        <time>2015-09-15T14:58:58Z</time>
      </trkpt>
      <trkpt lat="44.11951" lon="2.30399">
        <ele>389.47</ele>
        <time>2015-09-15T14:59:10Z</time>
      </trkpt>
      <trkpt lat="44.11944" lon="2.30401">
        <ele>388.99</ele>
        <time>2015-09-15T14:59:25Z</time>
      </trkpt>
      <trkpt lat="44.11934" lon="2.30403">
        <ele>388.51</ele>
        <time>2015-09-15T14:59:45Z</time>
      </trkpt>
      <trkpt lat="44.11931" lon="2.30404">
        <ele>388.51</ele>
        <time>2015-09-15T15:00:01Z</time>
      </trkpt>
      <trkpt lat="44.11924" lon="2.30408">
        <ele>388.03</ele>
        <time>2015-09-15T15:00:14Z</time>
      </trkpt>
      <trkpt lat="44.11914" lon="2.30411">
        <ele>387.07</ele>
        <time>2015-09-15T15:00:28Z</time>
      </trkpt>
      <trkpt lat="44.11903" lon="2.30421">
        <ele>386.11</ele>
        <time>2015-09-15T15:00:41Z</time>
      </trkpt>
      <trkpt lat="44.11894" lon="2.30425">
        <ele>385.15</ele>
        <time>2015-09-15T15:00:55Z</time>
      </trkpt>
      <trkpt lat="44.11886" lon="2.30431">
        <ele>385.15</ele>
        <time>2015-09-15T15:01:06Z</time>
      </trkpt>
      <trkpt lat="44.11879" lon="2.30435">
        <ele>386.59</ele>
        <time>2015-09-15T15:01:11Z</time>
      </trkpt>
      <trkpt lat="44.11863" lon="2.30441">
        <ele>388.03</ele>
        <time>2015-09-15T15:01:25Z</time>
      </trkpt>
      <trkpt lat="44.11851" lon="2.30447">
        <ele>388.99</ele>
        <time>2015-09-15T15:01:37Z</time>
      </trkpt>
      <trkpt lat="44.11842" lon="2.30453">
        <ele>388.99</ele>
        <time>2015-09-15T15:01:51Z</time>
      </trkpt>
      <trkpt lat="44.11827" lon="2.30462">
        <ele>388.99</ele>
        <time>2015-09-15T15:02:07Z</time>
      </trkpt>
      <trkpt lat="44.11813" lon="2.30469">
        <ele>388.99</ele>
        <time>2015-09-15T15:02:21Z</time>
      </trkpt>
      <trkpt lat="44.11803" lon="2.30474">
        <ele>387.55</ele>
        <time>2015-09-15T15:02:33Z</time>
      </trkpt>
      <trkpt lat="44.11798" lon="2.30477">
        <ele>387.07</ele>
        <time>2015-09-15T15:02:38Z</time>
      </trkpt>
      <trkpt lat="44.11786" lon="2.30486">
        <ele>386.59</ele>
        <time>2015-09-15T15:02:52Z</time>
      </trkpt>
      <trkpt lat="44.11781" lon="2.30494">
        <ele>386.11</ele>
        <time>2015-09-15T15:02:57Z</time>
      </trkpt>
      <trkpt lat="44.11773" lon="2.30505">
        <ele>385.63</ele>
        <time>2015-09-15T15:03:11Z</time>
      </trkpt>
      <trkpt lat="44.11767" lon="2.3051">
        <ele>385.15</ele>
        <time>2015-09-15T15:03:29Z</time>
      </trkpt>
      <trkpt lat="44.11759" lon="2.30519">
        <ele>383.7</ele>
        <time>2015-09-15T15:03:45Z</time>
      </trkpt>
      <trkpt lat="44.11752" lon="2.30529">
        <ele>383.7</ele>
        <time>2015-09-15T15:03:57Z</time>
      </trkpt>
      <trkpt lat="44.1175" lon="2.30542">
        <ele>384.66</ele>
        <time>2015-09-15T15:04:09Z</time>
      </trkpt>
      <trkpt lat="44.11747" lon="2.30552">
        <ele>384.66</ele>
        <time>2015-09-15T15:04:21Z</time>
      </trkpt>
      <trkpt lat="44.11747" lon="2.30562">
        <ele>385.63</ele>
        <time>2015-09-15T15:04:34Z</time>
      </trkpt>
      <trkpt lat="44.11752" lon="2.30578">
        <ele>387.07</ele>
        <time>2015-09-15T15:04:50Z</time>
      </trkpt>
      <trkpt lat="44.11752" lon="2.30584">
        <ele>387.07</ele>
        <time>2015-09-15T15:05:07Z</time>
      </trkpt>
      <trkpt lat="44.11752" lon="2.30588">
        <ele>387.07</ele>
        <time>2015-09-15T15:05:26Z</time>
      </trkpt>
      <trkpt lat="44.11754" lon="2.30593">
        <ele>385.63</ele>
        <time>2015-09-15T15:05:43Z</time>
      </trkpt>
      <trkpt lat="44.11752" lon="2.30588">
        <ele>385.63</ele>
        <time>2015-09-15T15:06:04Z</time>
      </trkpt>
      <trkpt lat="44.1175" lon="2.30588">
        <ele>385.63</ele>
        <time>2015-09-15T15:06:23Z</time>
      </trkpt>
      <trkpt lat="44.11753" lon="2.3059">
        <ele>384.66</ele>
        <time>2015-09-15T15:06:35Z</time>
      </trkpt>
      <trkpt lat="44.11751" lon="2.30601">
        <ele>381.3</ele>
        <time>2015-09-15T15:06:53Z</time>
      </trkpt>
      <trkpt lat="44.11749" lon="2.30615">
        <ele>378.9</ele>
        <time>2015-09-15T15:07:08Z</time>
      </trkpt>
      <trkpt lat="44.11751" lon="2.30629">
        <ele>376.49</ele>
        <time>2015-09-15T15:07:21Z</time>
      </trkpt>
      <trkpt lat="44.11757" lon="2.30637">
        <ele>374.09</ele>
        <time>2015-09-15T15:07:36Z</time>
      </trkpt>
      <trkpt lat="44.11764" lon="2.3063">
        <ele>372.65</ele>
        <time>2015-09-15T15:07:50Z</time>
      </trkpt>
      <trkpt lat="44.11769" lon="2.30626">
        <ele>370.73</ele>
        <time>2015-09-15T15:08:02Z</time>
      </trkpt>
      <trkpt lat="44.11778" lon="2.30615">
        <ele>368.8</ele>
        <time>2015-09-15T15:08:17Z</time>
      </trkpt>
      <trkpt lat="44.11784" lon="2.30606">
        <ele>366.4</ele>
        <time>2015-09-15T15:08:33Z</time>
      </trkpt>
      <trkpt lat="44.11784" lon="2.30605">
        <ele>364</ele>
        <time>2015-09-15T15:08:49Z</time>
      </trkpt>
      <trkpt lat="44.11783" lon="2.30611">
        <ele>362.07</ele>
        <time>2015-09-15T15:09:01Z</time>
      </trkpt>
      <trkpt lat="44.11779" lon="2.30622">
        <ele>358.71</ele>
        <time>2015-09-15T15:09:16Z</time>
      </trkpt>
      <trkpt lat="44.11776" lon="2.30636">
        <ele>355.83</ele>
        <time>2015-09-15T15:09:31Z</time>
      </trkpt>
      <trkpt lat="44.11775" lon="2.30649">
        <ele>353.9</ele>
        <time>2015-09-15T15:09:44Z</time>
      </trkpt>
      <trkpt lat="44.1177" lon="2.30663">
        <ele>351.5</ele>
        <time>2015-09-15T15:10:01Z</time>
      </trkpt>
      <trkpt lat="44.11767" lon="2.3068">
        <ele>348.62</ele>
        <time>2015-09-15T15:10:19Z</time>
      </trkpt>
      <trkpt lat="44.11767" lon="2.30694">
        <ele>346.21</ele>
        <time>2015-09-15T15:10:33Z</time>
      </trkpt>
      <trkpt lat="44.1176" lon="2.30706">
        <ele>343.33</ele>
        <time>2015-09-15T15:10:49Z</time>
      </trkpt>
      <trkpt lat="44.11757" lon="2.30715">
        <ele>341.41</ele>
        <time>2015-09-15T15:11:00Z</time>
      </trkpt>
      <trkpt lat="44.11758" lon="2.30719">
        <ele>341.41</ele>
        <time>2015-09-15T15:11:03Z</time>
      </trkpt>
      <trkpt lat="44.11751" lon="2.30727">
        <ele>339.96</ele>
        <time>2015-09-15T15:11:12Z</time>
      </trkpt>
      <trkpt lat="44.11755" lon="2.30729">
        <ele>339</ele>
        <time>2015-09-15T15:11:24Z</time>
      </trkpt>
      <trkpt lat="44.11756" lon="2.30726">
        <ele>339</ele>
        <time>2015-09-15T15:11:28Z</time>
      </trkpt>
      <trkpt lat="44.11764" lon="2.30715">
        <ele>337.56</ele>
        <time>2015-09-15T15:11:42Z</time>
      </trkpt>
      <trkpt lat="44.11765" lon="2.30712">
        <ele>337.56</ele>
        <time>2015-09-15T15:11:45Z</time>
      </trkpt>
      <trkpt lat="44.11765" lon="2.30706">
        <ele>337.56</ele>
        <time>2015-09-15T15:11:51Z</time>
      </trkpt>
      <trkpt lat="44.11774" lon="2.30691">
        <ele>335.64</ele>
        <time>2015-09-15T15:12:04Z</time>
      </trkpt>
      <trkpt lat="44.11776" lon="2.30688">
        <ele>336.6</ele>
        <time>2015-09-15T15:12:17Z</time>
      </trkpt>
      <trkpt lat="44.11775" lon="2.30689">
        <ele>336.6</ele>
        <time>2015-09-15T15:12:33Z</time>
      </trkpt>
      <trkpt lat="44.11781" lon="2.30685">
        <ele>336.12</ele>
        <time>2015-09-15T15:12:48Z</time>
      </trkpt>
      <trkpt lat="44.11784" lon="2.30681">
        <ele>336.12</ele>
        <time>2015-09-15T15:13:10Z</time>
      </trkpt>
      <trkpt lat="44.11781" lon="2.30681">
        <ele>335.64</ele>
        <time>2015-09-15T15:13:24Z</time>
      </trkpt>
      <trkpt lat="44.11776" lon="2.30679">
        <ele>335.64</ele>
        <time>2015-09-15T15:13:35Z</time>
      </trkpt>
      <trkpt lat="44.11778" lon="2.30676">
        <ele>335.16</ele>
        <time>2015-09-15T15:14:03Z</time>
      </trkpt>
      <trkpt lat="44.11776" lon="2.30675">
        <ele>334.68</ele>
        <time>2015-09-15T15:14:23Z</time>
      </trkpt>
      <trkpt lat="44.11777" lon="2.30673">
        <ele>333.23</ele>
        <time>2015-09-15T15:14:45Z</time>
      </trkpt>
    </trkseg>
  </trk>
</gpx>